Darstellungsparameter: Aktuell verwendete Einstellungen:
Skalierung der Graphiken ... ?
xyx+y,   Skalierungsfaktor:      Skalierung: Modus: x, Faktor: 1
Darstellungszeitraum ... ?
Vom - - bis: - -   Zeitraum: 25.03.2020 - 24.04.2020
Min/Max/Avg-Anzeige ... ?
Zeige MMA aktuell
Zeige MMA Monat
Zeige MMA alles
Zeige --A aktuell
Zeige --A Monat
Zeige --A alles
Keine MMA-Anzeige
MMA:
Keine MMA-Graphiken
MMA-Basis: 25.03.2020 - 24.04.2020
Quicknavigation für Darstellung... ?
Tage:      1T, 2T, 3T, 5T -1T -2T -3T -5T +1T +2T +3T +5T
Wochen: 1W, 2W, 3W -1W -2W -3W +1W +2W +3W
Monate: 1M, 3M, 6M -1M -3M -6M +1M +3M +6M
Jahre:    1J, 3J, 5J, 10J -1J -3J -5J -10J +1J +3J +5J +10J
Nutze für die Darstellung ... ?
Originaldaten oder ...
Mittelwerte Minima Maxima auf...
Stundenbasis Tagesbasis Wochenbasis
Monatsbasis Jahresbasis      Datenbasis: Mittelwerte auf Stundenbasis
Darstellen als:
Statistik (Auto) Statistik J:M      Darstellung:
Zur Graphik,    zurück zur Übersicht aller Sensoren.
 
Tabellarische Datenbersicht: ?
 
Sensor: Nr:Datum:Temp:Feuchte:
Aussen-T/F 1 25-03-2020 00:00:00 -1.75 C 31.0000 %
2 25-03-2020 01:00:00 -1.18333 C 29.6667 %
3 25-03-2020 02:00:00 -1.38333 C 27.5000 %
4 25-03-2020 03:00:00 -2 C 28.6667 %
5 25-03-2020 04:00:00 -3.18333 C 33.5000 %
6 25-03-2020 05:00:00 -2.96667 C 32.0000 %
7 25-03-2020 06:00:00 -4.3 C 36.0000 %
8 25-03-2020 07:00:00 -3.95 C 36.8333 %
9 25-03-2020 08:00:00 -2.13333 C 34.0000 %
10 25-03-2020 09:00:00 -0.2 C 30.8333 %
11 25-03-2020 10:00:00 3.91667 C 20.0000 %
12 25-03-2020 11:00:00 6.66667 C 20.0000 %
13 25-03-2020 12:00:00 8.63333 C 20.0000 %
14 25-03-2020 13:00:00 12.68333 C 20.0000 %
15 25-03-2020 14:00:00 12.55 C 20.0000 %
16 25-03-2020 15:00:00 14.43333 C 20.0000 %
17 25-03-2020 16:00:00 14.06667 C 20.0000 %
18 25-03-2020 17:00:00 11.11667 C 20.0000 %
19 25-03-2020 18:00:00 8.95 C 20.0000 %
20 25-03-2020 19:00:00 5.55 C 20.0000 %
21 25-03-2020 20:00:00 4.23333 C 20.0000 %
22 25-03-2020 21:00:00 4.23333 C 20.0000 %
23 25-03-2020 22:00:00 2.41667 C 20.0000 %
24 25-03-2020 23:00:00 1.68333 C 21.1667 %
25 26-03-2020 00:00:00 1.11667 C 22.3333 %
Sensor: Nr:Datum:Temp:Feuchte:
Aussen-T/F 26 26-03-2020 01:00:00 0.61667 C 24.0000 %
27 26-03-2020 02:00:00 0.55 C 21.6667 %
28 26-03-2020 03:00:00 -0.15 C 24.6667 %
29 26-03-2020 04:00:00 -0.33333 C 25.8333 %
30 26-03-2020 05:00:00 -0.58333 C 27.6667 %
31 26-03-2020 06:00:00 -0.9 C 28.8333 %
32 26-03-2020 07:00:00 -0.36667 C 28.6667 %
33 26-03-2020 08:00:00 1.11667 C 24.0000 %
34 26-03-2020 09:00:00 3.01667 C 20.0000 %
35 26-03-2020 10:00:00 5.26667 C 20.0000 %
36 26-03-2020 11:00:00 7.48333 C 20.0000 %
37 26-03-2020 12:00:00 9.26667 C 20.0000 %
38 26-03-2020 13:00:00 11.55 C 20.0000 %
39 26-03-2020 14:00:00 13.1 C 20.0000 %
40 26-03-2020 15:00:00 15.2 C 20.0000 %
41 26-03-2020 16:00:00 13.73333 C 20.0000 %
42 26-03-2020 17:00:00 11.01667 C 20.0000 %
43 26-03-2020 18:00:00 9.78333 C 20.0000 %
44 26-03-2020 19:00:00 6.98333 C 20.6667 %
45 26-03-2020 20:00:00 5.51667 C 25.5000 %
46 26-03-2020 21:00:00 4.5 C 29.6667 %
47 26-03-2020 22:00:00 4.51667 C 30.0000 %
48 26-03-2020 23:00:00 4.11667 C 30.3333 %
49 27-03-2020 00:00:00 3.86667 C 30.8333 %
50 27-03-2020 01:00:00 2.83333 C 35.3333 %
Sensor: Nr:Datum:Temp:Feuchte:
Aussen-T/F 51 27-03-2020 02:00:00 2.66667 C 35.3333 %
52 27-03-2020 03:00:00 2.45 C 35.3333 %
53 27-03-2020 04:00:00 1.81667 C 36.8333 %
54 27-03-2020 05:00:00 0.41667 C 40.5000 %
55 27-03-2020 06:00:00 -0.41667 C 42.8333 %
56 27-03-2020 07:00:00 0.35 C 42.6667 %
57 27-03-2020 08:00:00 1.8 C 40.3333 %
58 27-03-2020 09:00:00 3.96667 C 36.3333 %
59 27-03-2020 10:00:00 7.73333 C 29.0000 %
60 27-03-2020 11:00:00 12.46667 C 20.0000 %
61 27-03-2020 12:00:00 14.06667 C 20.0000 %
62 27-03-2020 13:00:00 17.15 C 20.0000 %
63 27-03-2020 14:00:00 18.18333 C 20.0000 %
64 27-03-2020 15:00:00 18.88333 C 20.0000 %
65 27-03-2020 16:00:00 18.2 C 20.0000 %
66 27-03-2020 17:00:00 16.05 C 20.0000 %
67 27-03-2020 18:00:00 13.86667 C 20.0000 %
68 27-03-2020 19:00:00 11.08333 C 20.6667 %
69 27-03-2020 20:00:00 8.8 C 27.8333 %
70 27-03-2020 21:00:00 7 C 32.3333 %
71 27-03-2020 22:00:00 5.93333 C 34.8333 %
72 27-03-2020 23:00:00 5.26667 C 36.1667 %
73 28-03-2020 00:00:00 4.81667 C 38.0000 %
74 28-03-2020 01:00:00 4.16667 C 39.3333 %
75 28-03-2020 02:00:00 3.46667 C 41.1667 %
Sensor: Nr:Datum:Temp:Feuchte:
Aussen-T/F 76 28-03-2020 03:00:00 2.6 C 42.6667 %
77 28-03-2020 04:00:00 1.91667 C 45.0000 %
78 28-03-2020 05:00:00 1.41667 C 45.5000 %
79 28-03-2020 06:00:00 1.15 C 46.1667 %
80 28-03-2020 07:00:00 1.81667 C 46.3333 %
81 28-03-2020 08:00:00 3.06667 C 44.6667 %
82 28-03-2020 09:00:00 6.06667 C 40.5000 %
83 28-03-2020 10:00:00 10.46667 C 32.3333 %
84 28-03-2020 11:00:00 15.3 C 21.8333 %
85 28-03-2020 12:00:00 17.53333 C 20.0000 %
86 28-03-2020 13:00:00 20.38333 C 20.0000 %
87 28-03-2020 14:00:00 22.58333 C 20.0000 %
88 28-03-2020 15:00:00 20.51667 C 20.0000 %
89 28-03-2020 16:00:00 19.96667 C 20.0000 %
90 28-03-2020 17:00:00 16.55 C 20.0000 %
91 28-03-2020 18:00:00 13.78333 C 20.0000 %
92 28-03-2020 19:00:00 11.51667 C 20.0000 %
93 28-03-2020 20:00:00 9.9 C 20.0000 %
94 28-03-2020 21:00:00 8.46667 C 22.6667 %
95 28-03-2020 22:00:00 8.13333 C 25.1667 %
96 28-03-2020 23:00:00 7.03333 C 31.0000 %
97 29-03-2020 00:00:00 6.45 C 32.8333 %
98 29-03-2020 01:00:00 6.15 C 31.6667 %
99 29-03-2020 02:00:00 5.21667 C 31.3333 %
100 29-03-2020 04:00:00 4.31667 C 31.1667 %
Sensor: Nr:Datum:Temp:Feuchte:
Aussen-T/F 101 29-03-2020 05:00:00 4.03333 C 31.6667 %
102 29-03-2020 06:00:00 2.96667 C 32.6667 %
103 29-03-2020 07:00:00 3.56667 C 34.5000 %
104 29-03-2020 08:00:00 4.01667 C 33.6667 %
105 29-03-2020 09:00:00 4.35 C 32.5000 %
106 29-03-2020 10:00:00 5.68333 C 30.0000 %
107 29-03-2020 11:00:00 6.26667 C 25.0000 %
108 29-03-2020 12:00:00 5.86667 C 26.3333 %
109 29-03-2020 13:00:00 7.05 C 22.1667 %
110 29-03-2020 14:00:00 7 C 20.0000 %
111 29-03-2020 15:00:00 7.53333 C 20.0000 %
112 29-03-2020 16:00:00 6.83333 C 20.0000 %
113 29-03-2020 17:00:00 7 C 20.8333 %
114 29-03-2020 18:00:00 5.6 C 28.8333 %
115 29-03-2020 19:00:00 3.48333 C 39.5000 %
116 29-03-2020 20:00:00 3.11667 C 40.8333 %
117 29-03-2020 21:00:00 3.71667 C 37.8333 %
118 29-03-2020 22:00:00 3.65 C 36.0000 %
119 29-03-2020 23:00:00 3.3 C 33.8333 %
120 30-03-2020 00:00:00 1.71667 C 34.8333 %
121 30-03-2020 01:00:00 0.15 C 37.1667 %
122 30-03-2020 02:00:00 -1.35 C 38.8333 %
123 30-03-2020 03:00:00 -1.85 C 39.3333 %
124 30-03-2020 04:00:00 -2.25 C 39.0000 %
125 30-03-2020 05:00:00 -2.76667 C 38.1667 %
Sensor: Nr:Datum:Temp:Feuchte:
Aussen-T/F 126 30-03-2020 06:00:00 -3.56667 C 39.0000 %
127 30-03-2020 07:00:00 -4 C 39.6667 %
128 30-03-2020 08:00:00 -3.66667 C 39.3333 %
129 30-03-2020 09:00:00 -2.51667 C 37.1667 %
130 30-03-2020 10:00:00 -0.83333 C 33.0000 %
131 30-03-2020 11:00:00 2.4 C 20.5000 %
132 30-03-2020 12:00:00 5.51667 C 20.0000 %
133 30-03-2020 13:00:00 6.33333 C 20.0000 %
134 30-03-2020 14:00:00 9.06667 C 20.0000 %
135 30-03-2020 15:00:00 12.26667 C 20.0000 %
136 30-03-2020 16:00:00 13.18333 C 20.0000 %
137 30-03-2020 17:00:00 11.73333 C 20.0000 %
138 30-03-2020 18:00:00 7.98333 C 20.0000 %
139 30-03-2020 19:00:00 6.33333 C 20.0000 %
140 30-03-2020 20:00:00 3.23333 C 29.8333 %
141 30-03-2020 21:00:00 4.15 C 29.6667 %
142 30-03-2020 22:00:00 3.93333 C 31.6667 %
143 30-03-2020 23:00:00 4.16667 C 30.8333 %
144 31-03-2020 00:00:00 4.25 C 30.6667 %
145 31-03-2020 01:00:00 3.95 C 35.3333 %
146 31-03-2020 02:00:00 3.43333 C 39.3333 %
147 31-03-2020 03:00:00 2.4 C 42.1667 %
148 31-03-2020 04:00:00 3.15 C 41.6667 %
149 31-03-2020 05:00:00 2.65 C 42.5000 %
150 31-03-2020 06:00:00 1.76667 C 44.8333 %
Sensor: Nr:Datum:Temp:Feuchte:
Aussen-T/F 151 31-03-2020 07:00:00 2.08333 C 44.6667 %
152 31-03-2020 08:00:00 3.35 C 41.5000 %
153 31-03-2020 09:00:00 4.03333 C 36.1667 %
154 31-03-2020 10:00:00 4.5 C 33.8333 %
155 31-03-2020 11:00:00 4.9 C 30.8333 %
156 31-03-2020 12:00:00 7.15 C 22.0000 %
157 31-03-2020 13:00:00 7.56667 C 20.0000 %
158 31-03-2020 14:00:00 10.95 C 20.0000 %
159 31-03-2020 15:00:00 13.38333 C 20.0000 %
160 31-03-2020 16:00:00 14.96667 C 20.0000 %
161 31-03-2020 17:00:00 14.45 C 20.0000 %
162 31-03-2020 18:00:00 9.76667 C 20.0000 %
163 31-03-2020 19:00:00 8.18333 C 20.0000 %
164 31-03-2020 20:00:00 4.91667 C 20.0000 %
165 31-03-2020 21:00:00 3.53333 C 21.0000 %
166 31-03-2020 22:00:00 2.4 C 26.3333 %
167 31-03-2020 23:00:00 1.41667 C 30.8333 %
168 01-04-2020 00:00:00 0.46667 C 33.1667 %
169 01-04-2020 01:00:00 -1.06667 C 37.0000 %
170 01-04-2020 02:00:00 -2.18333 C 38.3333 %
171 01-04-2020 03:00:00 -2.76667 C 38.3333 %
172 01-04-2020 04:00:00 -3.25 C 38.6667 %
173 01-04-2020 05:00:00 -3.86667 C 39.8333 %
174 01-04-2020 06:00:00 -4.23333 C 40.5000 %
175 01-04-2020 07:00:00 -4.5 C 41.0000 %
Sensor: Nr:Datum:Temp:Feuchte:
Aussen-T/F 176 01-04-2020 08:00:00 -3.83333 C 40.8333 %
177 01-04-2020 09:00:00 -2.46667 C 39.8333 %
178 01-04-2020 10:00:00 0.13333 C 38.5000 %
179 01-04-2020 11:00:00 4.31667 C 26.1667 %
180 01-04-2020 12:00:00 8.35 C 20.0000 %
181 01-04-2020 13:00:00 9.33333 C 20.0000 %
182 01-04-2020 14:00:00 13.35 C 20.0000 %
183 01-04-2020 15:00:00 17.03333 C 20.0000 %
184 01-04-2020 16:00:00 18.71667 C 20.0000 %
185 01-04-2020 17:00:00 17.23333 C 20.0000 %
186 01-04-2020 18:00:00 11.96667 C 20.0000 %
187 01-04-2020 19:00:00 10.08333 C 20.0000 %
188 01-04-2020 20:00:00 7.2 C 20.0000 %
189 01-04-2020 21:00:00 5.46667 C 20.1667 %
190 01-04-2020 22:00:00 3.03333 C 26.6667 %
191 01-04-2020 23:00:00 1.35 C 33.6667 %
192 02-04-2020 00:00:00 0.43333 C 36.0000 %
193 02-04-2020 01:00:00 -0.55 C 38.0000 %
194 02-04-2020 02:00:00 -1.26667 C 39.5000 %
195 02-04-2020 03:00:00 -1.5 C 40.0000 %
196 02-04-2020 04:00:00 -2.08333 C 40.5000 %
197 02-04-2020 05:00:00 -2.6 C 41.0000 %
198 02-04-2020 06:00:00 -2.86667 C 41.8333 %
199 02-04-2020 07:00:00 -3.05 C 42.3333 %
200 02-04-2020 08:00:00 -2.23333 C 42.3333 %
Sensor: Nr:Datum:Temp:Feuchte:
Aussen-T/F 201 02-04-2020 09:00:00 -1.06667 C 41.1667 %
202 02-04-2020 10:00:00 1.41667 C 39.8333 %
203 02-04-2020 11:00:00 5.78333 C 31.3333 %
204 02-04-2020 12:00:00 10.06667 C 22.0000 %
205 02-04-2020 13:00:00 11.71667 C 20.0000 %
206 02-04-2020 14:00:00 15.76667 C 20.0000 %
207 02-04-2020 15:00:00 19.15 C 20.0000 %
208 02-04-2020 16:00:00 18.53333 C 20.0000 %
209 02-04-2020 17:00:00 15.78333 C 20.0000 %
210 02-04-2020 18:00:00 11.91667 C 20.0000 %
211 02-04-2020 19:00:00 9.78333 C 20.0000 %
212 02-04-2020 20:00:00 7.8 C 21.0000 %
213 02-04-2020 21:00:00 5.86667 C 28.3333 %
214 02-04-2020 22:00:00 5.21667 C 30.5000 %
215 02-04-2020 23:00:00 4.41667 C 33.0000 %
216 03-04-2020 00:00:00 2.63333 C 38.8333 %
217 03-04-2020 01:00:00 2.48333 C 39.0000 %
218 03-04-2020 02:00:00 2.7 C 38.6667 %
219 03-04-2020 03:00:00 4.03333 C 37.0000 %
220 03-04-2020 04:00:00 4.86667 C 35.5000 %
221 03-04-2020 05:00:00 4.81667 C 35.6667 %
222 03-04-2020 06:00:00 5.21667 C 35.1667 %
223 03-04-2020 07:00:00 5.61667 C 35.0000 %
224 03-04-2020 08:00:00 6.01667 C 35.0000 %
225 03-04-2020 09:00:00 7.63333 C 33.6667 %
Sensor: Nr:Datum:Temp:Feuchte:
Aussen-T/F 226 03-04-2020 10:00:00 9.06667 C 32.0000 %
227 03-04-2020 11:00:00 11.11667 C 28.1667 %
228 03-04-2020 12:00:00 11.25 C 25.5000 %
229 03-04-2020 13:00:00 11.81667 C 23.1667 %
230 03-04-2020 14:00:00 11.71667 C 21.1667 %
231 03-04-2020 15:00:00 12.16667 C 20.0000 %
232 03-04-2020 16:00:00 12.41667 C 20.0000 %
233 03-04-2020 17:00:00 12.18333 C 20.0000 %
234 03-04-2020 18:00:00 11.35 C 20.0000 %
235 03-04-2020 19:00:00 10.4 C 20.0000 %
236 03-04-2020 20:00:00 9.36667 C 20.0000 %
237 03-04-2020 21:00:00 8.8 C 20.0000 %
238 03-04-2020 22:00:00 7.13333 C 23.3333 %
239 03-04-2020 23:00:00 5.65 C 27.3333 %
240 04-04-2020 00:00:00 4.66667 C 29.5000 %
241 04-04-2020 01:00:00 3.68333 C 32.5000 %
242 04-04-2020 02:00:00 1.13333 C 40.5000 %
243 04-04-2020 03:00:00 0.38333 C 42.5000 %
244 04-04-2020 04:00:00 -0.68333 C 43.8333 %
245 04-04-2020 05:00:00 -1.11667 C 45.0000 %
246 04-04-2020 06:00:00 -1.53333 C 45.1667 %
247 04-04-2020 07:00:00 -1.7 C 45.3333 %
248 04-04-2020 08:00:00 -1.3 C 45.8333 %
249 04-04-2020 09:00:00 0.26667 C 44.5000 %
250 04-04-2020 10:00:00 2.73333 C 40.8333 %
Sensor: Nr:Datum:Temp:Feuchte:
Aussen-T/F 251 04-04-2020 11:00:00 7.3 C 32.1667 %
252 04-04-2020 12:00:00 10.51667 C 22.3333 %
253 04-04-2020 13:00:00 11.81667 C 20.0000 %
254 04-04-2020 14:00:00 15.05 C 20.0000 %
255 04-04-2020 15:00:00 18.36667 C 20.0000 %
256 04-04-2020 16:00:00 19.68333 C 20.0000 %
257 04-04-2020 17:00:00 19.43333 C 20.0000 %
258 04-04-2020 18:00:00 15.75 C 20.0000 %
259 04-04-2020 19:00:00 13.55 C 20.0000 %
260 04-04-2020 20:00:00 10.13333 C 22.3333 %
261 04-04-2020 21:00:00 8.41667 C 24.8333 %
262 04-04-2020 22:00:00 5.08333 C 33.0000 %
263 04-04-2020 23:00:00 3.81667 C 35.3333 %
264 05-04-2020 00:00:00 2.68333 C 38.8333 %
265 05-04-2020 01:00:00 2.1 C 40.8333 %
266 05-04-2020 02:00:00 1.31667 C 42.6667 %
267 05-04-2020 03:00:00 0.88333 C 44.0000 %
268 05-04-2020 04:00:00 0.33333 C 45.6667 %
269 05-04-2020 05:00:00 -0.28333 C 46.5000 %
270 05-04-2020 06:00:00 -0.65 C 47.1667 %
271 05-04-2020 07:00:00 -0.6 C 47.8333 %
272 05-04-2020 08:00:00 0.25 C 48.5000 %
273 05-04-2020 09:00:00 2.15 C 46.1667 %
274 05-04-2020 10:00:00 5.76667 C 39.8333 %
275 05-04-2020 11:00:00 12.05 C 26.5000 %
Sensor: Nr:Datum:Temp:Feuchte:
Aussen-T/F 276 05-04-2020 12:00:00 16.76667 C 20.0000 %
277 05-04-2020 13:00:00 17.63333 C 20.0000 %
278 05-04-2020 14:00:00 20.85 C 20.0000 %
279 05-04-2020 15:00:00 25.43333 C 20.0000 %
280 05-04-2020 16:00:00 24.18333 C 20.0000 %
281 05-04-2020 17:00:00 24.66667 C 20.0000 %
282 05-04-2020 18:00:00 19.75 C 20.0000 %
283 05-04-2020 19:00:00 17.33333 C 20.0000 %
284 05-04-2020 20:00:00 13.48333 C 20.0000 %
285 05-04-2020 21:00:00 11.65 C 20.0000 %
286 05-04-2020 22:00:00 9 C 25.1667 %
287 05-04-2020 23:00:00 7.13333 C 29.8333 %
288 06-04-2020 00:00:00 6 C 32.5000 %
289 06-04-2020 01:00:00 4.98333 C 35.5000 %
290 06-04-2020 02:00:00 4.11667 C 37.1667 %
291 06-04-2020 03:00:00 3.43333 C 39.5000 %
292 06-04-2020 04:00:00 2.91667 C 40.3333 %
293 06-04-2020 05:00:00 2.05 C 41.8333 %
294 06-04-2020 06:00:00 1.36667 C 44.6667 %
295 06-04-2020 07:00:00 1.6 C 45.0000 %
296 06-04-2020 08:00:00 2.7 C 43.0000 %
297 06-04-2020 09:00:00 4.18333 C 40.5000 %
298 06-04-2020 10:00:00 7.7 C 36.0000 %
299 06-04-2020 11:00:00 14.55 C 24.3333 %
300 06-04-2020 12:00:00 19.6 C 20.0000 %
Sensor: Nr:Datum:Temp:Feuchte:
Aussen-T/F 301 06-04-2020 13:00:00 20.76667 C 20.0000 %
302 06-04-2020 14:00:00 25.13333 C 20.0000 %
303 06-04-2020 15:00:00 27.05 C 20.0000 %
304 06-04-2020 16:00:00 28.06667 C 20.0000 %
305 06-04-2020 17:00:00 25.95 C 20.0000 %
306 06-04-2020 18:00:00 22.65 C 20.0000 %
307 06-04-2020 19:00:00 20.15 C 20.0000 %
308 06-04-2020 20:00:00 15.43333 C 20.0000 %
309 06-04-2020 21:00:00 12.1 C 21.0000 %
310 06-04-2020 22:00:00 10.25 C 25.5000 %
311 06-04-2020 23:00:00 9.5 C 27.0000 %
312 07-04-2020 00:00:00 9.06667 C 29.1667 %
313 07-04-2020 01:00:00 9.51667 C 29.8333 %
314 07-04-2020 02:00:00 8.13333 C 32.8333 %
315 07-04-2020 03:00:00 7.71667 C 35.1667 %
316 07-04-2020 04:00:00 7.28333 C 36.3333 %
317 07-04-2020 05:00:00 5.9 C 39.5000 %
318 07-04-2020 06:00:00 5.18333 C 41.0000 %
319 07-04-2020 07:00:00 5.13333 C 43.0000 %
320 07-04-2020 08:00:00 6.06667 C 41.0000 %
321 07-04-2020 09:00:00 8.01667 C 39.1667 %
322 07-04-2020 10:00:00 11.15 C 36.0000 %
323 07-04-2020 11:00:00 15.53333 C 29.0000 %
324 07-04-2020 12:00:00 18.95 C 22.5000 %
325 07-04-2020 13:00:00 20.6 C 20.0000 %
Sensor: Nr:Datum:Temp:Feuchte:
Aussen-T/F 326 07-04-2020 14:00:00 23.75 C 20.0000 %
327 07-04-2020 15:00:00 27.63333 C 20.0000 %
328 07-04-2020 16:00:00 26.28333 C 20.0000 %
329 07-04-2020 17:00:00 25.98333 C 20.0000 %
330 07-04-2020 18:00:00 22.88333 C 20.0000 %
331 07-04-2020 19:00:00 19.76667 C 20.0000 %
332 07-04-2020 20:00:00 16.93333 C 20.0000 %
333 07-04-2020 21:00:00 15.58333 C 20.6667 %
334 07-04-2020 22:00:00 13.11667 C 28.5000 %
335 07-04-2020 23:00:00 12.71667 C 30.0000 %
336 08-04-2020 00:00:00 11.4 C 33.5000 %
337 08-04-2020 01:00:00 10.3 C 36.3333 %
338 08-04-2020 02:00:00 8.38333 C 39.6667 %
339 08-04-2020 03:00:00 7.03333 C 42.0000 %
340 08-04-2020 04:00:00 6.43333 C 44.5000 %
341 08-04-2020 05:00:00 5.63333 C 45.0000 %
342 08-04-2020 06:00:00 5.23333 C 46.0000 %
343 08-04-2020 07:00:00 5.3 C 46.0000 %
344 08-04-2020 08:00:00 6.25 C 46.0000 %
345 08-04-2020 09:00:00 7.76667 C 44.8333 %
346 08-04-2020 10:00:00 10.73333 C 40.6667 %
347 08-04-2020 11:00:00 16.01667 C 31.5000 %
348 08-04-2020 12:00:00 21.26667 C 20.5000 %
349 08-04-2020 13:00:00 22.6 C 20.0000 %
350 08-04-2020 14:00:00 26.23333 C 20.0000 %
Sensor: Nr:Datum:Temp:Feuchte:
Aussen-T/F 351 08-04-2020 15:00:00 29.81667 C 20.0000 %
352 08-04-2020 16:00:00 30.46667 C 20.0000 %
353 08-04-2020 17:00:00 29.4 C 20.0000 %
354 08-04-2020 18:00:00 24.78333 C 20.0000 %
355 08-04-2020 19:00:00 21.03333 C 20.0000 %
356 08-04-2020 20:00:00 17.13333 C 20.0000 %
357 08-04-2020 21:00:00 13.88333 C 20.0000 %
358 08-04-2020 22:00:00 12.28333 C 23.8333 %
359 08-04-2020 23:00:00 11.13333 C 27.3333 %
360 09-04-2020 00:00:00 10.45 C 29.6667 %
361 09-04-2020 01:00:00 9.6 C 32.0000 %
362 09-04-2020 02:00:00 8.86667 C 34.6667 %
363 09-04-2020 03:00:00 9.58333 C 33.3333 %
364 09-04-2020 04:00:00 9.6 C 34.0000 %
365 09-04-2020 05:00:00 8.36667 C 36.0000 %
366 09-04-2020 06:00:00 7.21667 C 38.3333 %
367 09-04-2020 07:00:00 7.06667 C 39.5000 %
368 09-04-2020 08:00:00 7.6 C 39.6667 %
369 09-04-2020 09:00:00 9.28333 C 37.6667 %
370 09-04-2020 10:00:00 12.38333 C 33.8333 %
371 09-04-2020 11:00:00 17.33333 C 24.5000 %
372 09-04-2020 12:00:00 21.18333 C 20.0000 %
373 09-04-2020 13:00:00 22.86667 C 20.0000 %
374 09-04-2020 14:00:00 26.03333 C 20.0000 %
375 09-04-2020 15:00:00 29.28333 C 20.0000 %
Sensor: Nr:Datum:Temp:Feuchte:
Aussen-T/F 376 09-04-2020 16:00:00 29.45 C 20.0000 %
377 09-04-2020 17:00:00 28.26667 C 20.0000 %
378 09-04-2020 18:00:00 23.78333 C 20.0000 %
379 09-04-2020 19:00:00 21.45 C 20.0000 %
380 09-04-2020 20:00:00 17.21667 C 20.1667 %
381 09-04-2020 21:00:00 15.98333 C 20.8333 %
382 09-04-2020 22:00:00 14.91667 C 23.3333 %
383 09-04-2020 23:00:00 13.7 C 26.0000 %
384 10-04-2020 00:00:00 11.41667 C 31.8333 %
385 10-04-2020 01:00:00 9.65 C 35.6667 %
386 10-04-2020 02:00:00 8.65 C 37.1667 %
387 10-04-2020 03:00:00 7.58333 C 39.3333 %
388 10-04-2020 04:00:00 6.75 C 40.8333 %
389 10-04-2020 05:00:00 6.13333 C 42.1667 %
390 10-04-2020 06:00:00 5.56667 C 44.0000 %
391 10-04-2020 07:00:00 5.4 C 45.0000 %
392 10-04-2020 08:00:00 6.06667 C 44.6667 %
393 10-04-2020 09:00:00 8.31667 C 41.0000 %
394 10-04-2020 10:00:00 11.36667 C 36.0000 %
395 10-04-2020 11:00:00 15.86667 C 28.0000 %
396 10-04-2020 12:00:00 19.36667 C 20.8333 %
397 10-04-2020 13:00:00 20.45 C 20.0000 %
398 10-04-2020 14:00:00 24.51667 C 20.0000 %
399 10-04-2020 15:00:00 29.9 C 20.0000 %
400 10-04-2020 16:00:00 29.51667 C 20.0000 %
Sensor: Nr:Datum:Temp:Feuchte:
Aussen-T/F 401 10-04-2020 17:00:00 27.95 C 20.0000 %
402 10-04-2020 18:00:00 22.6 C 20.0000 %
403 10-04-2020 19:00:00 20.98333 C 20.0000 %
404 10-04-2020 20:00:00 16.71667 C 20.0000 %
405 10-04-2020 21:00:00 14.43333 C 20.6667 %
406 10-04-2020 22:00:00 14.23333 C 22.3333 %
407 10-04-2020 23:00:00 12 C 26.5000 %
408 11-04-2020 00:00:00 10.35 C 30.6667 %
409 11-04-2020 01:00:00 9.2 C 31.8333 %
410 11-04-2020 02:00:00 8.16667 C 32.1667 %
411 11-04-2020 03:00:00 8.6 C 30.3333 %
412 11-04-2020 04:00:00 7.8 C 29.8333 %
413 11-04-2020 05:00:00 6.45 C 30.6667 %
414 11-04-2020 06:00:00 4.95 C 33.8333 %
415 11-04-2020 07:00:00 4.56667 C 35.0000 %
416 11-04-2020 08:00:00 5.5 C 33.8333 %
417 11-04-2020 09:00:00 7.58333 C 31.0000 %
418 11-04-2020 10:00:00 10.55 C 26.1667 %
419 11-04-2020 11:00:00 14.81667 C 20.0000 %
420 11-04-2020 12:00:00 18.46667 C 20.0000 %
421 11-04-2020 13:00:00 19.71667 C 20.0000 %
422 11-04-2020 14:00:00 23.83333 C 20.0000 %
423 11-04-2020 15:00:00 30.38333 C 20.0000 %
424 11-04-2020 16:00:00 30.91667 C 20.0000 %
425 11-04-2020 17:00:00 28.96667 C 20.0000 %
Sensor: Nr:Datum:Temp:Feuchte:
Aussen-T/F 426 11-04-2020 18:00:00 23.5 C 20.0000 %
427 11-04-2020 19:00:00 21.56667 C 20.0000 %
428 11-04-2020 20:00:00 16.81667 C 20.0000 %
429 11-04-2020 21:00:00 15.21667 C 20.0000 %
430 11-04-2020 22:00:00 14.25 C 20.6667 %
431 11-04-2020 23:00:00 12.43333 C 25.6667 %
432 12-04-2020 00:00:00 11.45 C 28.6667 %
433 12-04-2020 01:00:00 10.66667 C 28.8333 %
434 12-04-2020 02:00:00 10.41667 C 30.6667 %
435 12-04-2020 03:00:00 10.08333 C 31.8333 %
436 12-04-2020 04:00:00 9.1 C 34.1667 %
437 12-04-2020 05:00:00 8.15 C 36.1667 %
438 12-04-2020 06:00:00 7.33333 C 38.3333 %
439 12-04-2020 07:00:00 6.81667 C 39.8333 %
440 12-04-2020 08:00:00 7.66667 C 40.0000 %
441 12-04-2020 09:00:00 9.76667 C 37.5000 %
442 12-04-2020 10:00:00 12.95 C 33.5000 %
443 12-04-2020 11:00:00 17.63333 C 25.6667 %
444 12-04-2020 12:00:00 21.28333 C 20.0000 %
445 12-04-2020 13:00:00 21.86667 C 20.0000 %
446 12-04-2020 14:00:00 25.23333 C 20.0000 %
447 12-04-2020 15:00:00 29.23333 C 20.0000 %
448 12-04-2020 16:00:00 29.16667 C 20.0000 %
449 12-04-2020 17:00:00 29.05 C 20.0000 %
450 12-04-2020 18:00:00 23.58333 C 20.0000 %
Sensor: Nr:Datum:Temp:Feuchte:
Aussen-T/F 451 12-04-2020 19:00:00 21.31667 C 20.0000 %
452 12-04-2020 20:00:00 17.23333 C 20.0000 %
453 12-04-2020 21:00:00 13.78333 C 20.3333 %
454 12-04-2020 22:00:00 12.5 C 22.8333 %
455 12-04-2020 23:00:00 10.83333 C 27.0000 %
456 13-04-2020 00:00:00 10.18333 C 29.8333 %
457 13-04-2020 01:00:00 9.28333 C 31.8333 %
458 13-04-2020 02:00:00 8.95 C 32.8333 %
459 13-04-2020 03:00:00 8.06667 C 34.8333 %
460 13-04-2020 04:00:00 7.11667 C 37.3333 %
461 13-04-2020 05:00:00 7.46667 C 37.5000 %
462 13-04-2020 06:00:00 6.5 C 39.3333 %
463 13-04-2020 07:00:00 7.7 C 38.0000 %
464 13-04-2020 08:00:00 9.61667 C 36.1667 %
465 13-04-2020 09:00:00 11.2 C 36.0000 %
466 13-04-2020 10:00:00 11.21667 C 34.1667 %
467 13-04-2020 11:00:00 11.36667 C 31.8333 %
468 13-04-2020 12:00:00 10.7 C 32.3333 %
469 13-04-2020 13:00:00 9.41667 C 33.8333 %
470 13-04-2020 14:00:00 8.93333 C 35.6667 %
471 13-04-2020 15:00:00 12.46667 C 21.8333 %
472 13-04-2020 16:00:00 14.83333 C 20.0000 %
473 13-04-2020 17:00:00 15.11667 C 20.0000 %
474 13-04-2020 18:00:00 11.98333 C 20.0000 %
475 13-04-2020 19:00:00 10.15 C 20.0000 %
Sensor: Nr:Datum:Temp:Feuchte:
Aussen-T/F 476 13-04-2020 20:00:00 8.36667 C 20.0000 %
477 13-04-2020 21:00:00 7.1 C 20.0000 %
478 13-04-2020 22:00:00 4.96667 C 22.1667 %
479 13-04-2020 23:00:00 3.75 C 27.1667 %
480 14-04-2020 00:00:00 3.26667 C 27.5000 %
481 14-04-2020 01:00:00 2.41667 C 30.0000 %
482 14-04-2020 02:00:00 1.11667 C 35.3333 %
483 14-04-2020 03:00:00 0.98333 C 35.5000 %
484 14-04-2020 04:00:00 0.73333 C 36.0000 %
485 14-04-2020 05:00:00 0.31667 C 38.3333 %
486 14-04-2020 06:00:00 -0.3 C 40.8333 %
487 14-04-2020 07:00:00 1.43333 C 39.1667 %
488 14-04-2020 08:00:00 2.08333 C 38.3333 %
489 14-04-2020 09:00:00 4.75 C 33.5000 %
490 14-04-2020 10:00:00 6.8 C 28.1667 %
491 14-04-2020 11:00:00 8.3 C 20.1667 %
492 14-04-2020 12:00:00 9.16667 C 20.0000 %
493 14-04-2020 13:00:00 10.13333 C 20.0000 %
494 14-04-2020 14:00:00 13.43333 C 20.0000 %
495 14-04-2020 15:00:00 16.33333 C 20.0000 %
496 14-04-2020 16:00:00 15.78333 C 20.0000 %
497 14-04-2020 17:00:00 15.65 C 20.0000 %
498 14-04-2020 18:00:00 12.13333 C 20.0000 %
499 14-04-2020 19:00:00 10.48333 C 20.0000 %
500 14-04-2020 20:00:00 7.73333 C 22.1667 %
Sensor: Nr:Datum:Temp:Feuchte:
Aussen-T/F 501 14-04-2020 21:00:00 6.05 C 26.0000 %
502 14-04-2020 22:00:00 5.05 C 28.8333 %
503 14-04-2020 23:00:00 3.25 C 34.6667 %
504 15-04-2020 00:00:00 1.83333 C 38.5000 %
505 15-04-2020 01:00:00 1.25 C 40.0000 %
506 15-04-2020 02:00:00 0.63333 C 41.8333 %
507 15-04-2020 03:00:00 0.21667 C 43.0000 %
508 15-04-2020 04:00:00 -0.15 C 43.5000 %
509 15-04-2020 05:00:00 -0.45 C 44.6667 %
510 15-04-2020 06:00:00 -0.71667 C 45.0000 %
511 15-04-2020 07:00:00 -0.23333 C 45.1667 %
512 15-04-2020 08:00:00 1.5 C 42.0000 %
513 15-04-2020 09:00:00 3.55 C 37.5000 %
514 15-04-2020 10:00:00 6.48333 C 33.0000 %
515 15-04-2020 11:00:00 10.1 C 25.8333 %
516 15-04-2020 12:00:00 12.91667 C 20.0000 %
517 15-04-2020 13:00:00 13.93333 C 20.0000 %
518 15-04-2020 14:00:00 19.71667 C 20.0000 %
519 15-04-2020 15:00:00 24.25 C 20.0000 %
520 15-04-2020 16:00:00 24.61667 C 20.0000 %
521 15-04-2020 17:00:00 24.63333 C 20.0000 %
522 15-04-2020 18:00:00 19.73333 C 20.0000 %
523 15-04-2020 19:00:00 17.71667 C 20.0000 %
524 15-04-2020 20:00:00 13.13333 C 20.0000 %
525 15-04-2020 21:00:00 10.48333 C 21.8333 %
Sensor: Nr:Datum:Temp:Feuchte:
Aussen-T/F 526 15-04-2020 22:00:00 8.23333 C 28.3333 %
527 15-04-2020 23:00:00 6.75 C 30.8333 %
528 16-04-2020 00:00:00 5.66667 C 34.0000 %
529 16-04-2020 01:00:00 4.88333 C 35.3333 %
530 16-04-2020 02:00:00 4.1 C 37.5000 %
531 16-04-2020 03:00:00 3.31667 C 39.6667 %
532 16-04-2020 04:00:00 2.88333 C 40.8333 %
533 16-04-2020 05:00:00 2.4 C 42.1667 %
534 16-04-2020 06:00:00 1.83333 C 43.8333 %
535 16-04-2020 07:00:00 2.08333 C 44.3333 %
536 16-04-2020 08:00:00 3.06667 C 42.6667 %
537 16-04-2020 09:00:00 5.01667 C 39.6667 %
538 16-04-2020 10:00:00 8.93333 C 33.6667 %
539 16-04-2020 11:00:00 15.71667 C 22.3333 %
540 16-04-2020 12:00:00 19.1 C 20.0000 %
541 16-04-2020 13:00:00 20.95 C 20.0000 %
542 16-04-2020 14:00:00 25.16667 C 20.0000 %
543 16-04-2020 15:00:00 28.46667 C 20.0000 %
544 16-04-2020 16:00:00 27.18333 C 20.0000 %
545 16-04-2020 17:00:00 26.8 C 20.0000 %
546 16-04-2020 18:00:00 24.4 C 20.0000 %
547 16-04-2020 19:00:00 21.98333 C 20.0000 %
548 16-04-2020 20:00:00 19.08333 C 20.0000 %
549 16-04-2020 21:00:00 15.85 C 20.5000 %
550 16-04-2020 22:00:00 13.56667 C 25.1667 %
Sensor: Nr:Datum:Temp:Feuchte:
Aussen-T/F 551 16-04-2020 23:00:00 11.9 C 30.3333 %
552 17-04-2020 00:00:00 10.96667 C 31.8333 %
553 17-04-2020 01:00:00 9.91667 C 34.8333 %
554 17-04-2020 02:00:00 8.98333 C 36.8333 %
555 17-04-2020 03:00:00 7.95 C 39.6667 %
556 17-04-2020 04:00:00 8.06667 C 39.5000 %
557 17-04-2020 05:00:00 6.81667 C 41.6667 %
558 17-04-2020 06:00:00 6.05 C 43.5000 %
559 17-04-2020 07:00:00 6.08333 C 45.0000 %
560 17-04-2020 08:00:00 7.1 C 44.5000 %
561 17-04-2020 09:00:00 9.16667 C 40.8333 %
562 17-04-2020 10:00:00 12.15 C 35.6667 %
563 17-04-2020 11:00:00 16.6 C 28.1667 %
564 17-04-2020 12:00:00 19.23333 C 21.8333 %
565 17-04-2020 13:00:00 20.75 C 20.0000 %
566 17-04-2020 14:00:00 25.65 C 20.0000 %
567 17-04-2020 15:00:00 29.3 C 20.0000 %
568 17-04-2020 16:00:00 28.68333 C 20.0000 %
569 17-04-2020 17:00:00 29.18333 C 20.0000 %
570 17-04-2020 18:00:00 25.36667 C 20.0000 %
571 17-04-2020 19:00:00 22.56667 C 20.0000 %
572 17-04-2020 20:00:00 18.76667 C 21.0000 %
573 17-04-2020 21:00:00 17.4 C 24.3333 %
574 17-04-2020 22:00:00 15.53333 C 26.6667 %
575 17-04-2020 23:00:00 14.05 C 30.1667 %
Sensor: Nr:Datum:Temp:Feuchte:
Aussen-T/F 576 18-04-2020 00:00:00 12.51667 C 32.6667 %
577 18-04-2020 01:00:00 11.31667 C 34.8333 %
578 18-04-2020 02:00:00 10.33333 C 36.8333 %
579 18-04-2020 03:00:00 9.23333 C 39.1667 %
580 18-04-2020 04:00:00 8.88333 C 40.5000 %
581 18-04-2020 05:00:00 8.51667 C 40.8333 %
582 18-04-2020 06:00:00 8.43333 C 41.0000 %
583 18-04-2020 07:00:00 9.25 C 41.5000 %
584 18-04-2020 08:00:00 10.28333 C 40.0000 %
585 18-04-2020 09:00:00 12.98333 C 35.3333 %
586 18-04-2020 10:00:00 16.16667 C 30.0000 %
587 18-04-2020 11:00:00 18.43333 C 26.6667 %
588 18-04-2020 12:00:00 19.71667 C 24.8333 %
589 18-04-2020 13:00:00 21.65 C 20.8333 %
590 18-04-2020 14:00:00 22.18333 C 20.0000 %
591 18-04-2020 15:00:00 25.53333 C 20.0000 %
592 18-04-2020 16:00:00 20.63333 C 22.5000 %
593 18-04-2020 17:00:00 18.2 C 30.0000 %
594 18-04-2020 18:00:00 17.5 C 32.1667 %
595 18-04-2020 19:00:00 17.86667 C 29.8333 %
596 18-04-2020 20:00:00 15.66667 C 31.8333 %
597 18-04-2020 21:00:00 14.88333 C 33.6667 %
598 18-04-2020 22:00:00 13.6 C 35.6667 %
599 18-04-2020 23:00:00 11.8 C 39.3333 %
600 19-04-2020 00:00:00 10.26667 C 43.3333 %
Sensor: Nr:Datum:Temp:Feuchte:
Aussen-T/F 601 19-04-2020 01:00:00 9.71667 C 44.8333 %
602 19-04-2020 02:00:00 9.76667 C 44.8333 %
603 19-04-2020 03:00:00 9.05 C 44.8333 %
604 19-04-2020 04:00:00 9.25 C 45.0000 %
605 19-04-2020 05:00:00 9.68333 C 45.0000 %
606 19-04-2020 06:00:00 10.13333 C 44.1667 %
607 19-04-2020 07:00:00 10.5 C 43.5000 %
608 19-04-2020 08:00:00 11.85 C 40.3333 %
609 19-04-2020 09:00:00 13.3 C 36.3333 %
610 19-04-2020 10:00:00 15.15 C 33.1667 %
611 19-04-2020 11:00:00 14.55 C 33.5000 %
612 19-04-2020 12:00:00 15.68333 C 31.6667 %
613 19-04-2020 13:00:00 18.15 C 26.6667 %
614 19-04-2020 14:00:00 18 C 25.5000 %
615 19-04-2020 15:00:00 17.26667 C 25.1667 %
616 19-04-2020 16:00:00 20.33333 C 20.3333 %
617 19-04-2020 17:00:00 18.75 C 20.0000 %
618 19-04-2020 18:00:00 17.15 C 20.0000 %
619 19-04-2020 19:00:00 16.08333 C 20.0000 %
620 19-04-2020 20:00:00 13.25 C 24.0000 %
621 19-04-2020 21:00:00 11.6 C 26.6667 %
622 19-04-2020 22:00:00 10.78333 C 26.0000 %
623 19-04-2020 23:00:00 10.3 C 24.5000 %
624 20-04-2020 00:00:00 9.76667 C 24.0000 %
625 20-04-2020 01:00:00 9.23333 C 22.3333 %
Sensor: Nr:Datum:Temp:Feuchte:
Aussen-T/F 626 20-04-2020 02:00:00 7.56667 C 26.6667 %
627 20-04-2020 03:00:00 6.85 C 28.1667 %
628 20-04-2020 04:00:00 6.41667 C 28.3333 %
629 20-04-2020 05:00:00 6.3 C 29.1667 %
630 20-04-2020 06:00:00 5.98333 C 30.0000 %
631 20-04-2020 07:00:00 6.58333 C 29.0000 %
632 20-04-2020 08:00:00 7.78333 C 26.6667 %
633 20-04-2020 09:00:00 8.78333 C 26.0000 %
634 20-04-2020 10:00:00 11.65 C 21.3333 %
635 20-04-2020 11:00:00 14.43333 C 20.0000 %
636 20-04-2020 12:00:00 15.13333 C 20.0000 %
637 20-04-2020 13:00:00 16.03333 C 20.0000 %
638 20-04-2020 14:00:00 19.95 C 20.0000 %
639 20-04-2020 15:00:00 23.01667 C 20.0000 %
640 20-04-2020 16:00:00 23.45 C 20.0000 %
641 20-04-2020 17:00:00 21.88333 C 20.0000 %
642 20-04-2020 18:00:00 18.58333 C 20.0000 %
643 20-04-2020 19:00:00 17.08333 C 20.0000 %
644 20-04-2020 20:00:00 14.88333 C 20.0000 %
645 20-04-2020 21:00:00 12.66667 C 20.0000 %
646 20-04-2020 22:00:00 11.9 C 20.0000 %
647 20-04-2020 23:00:00 11.28333 C 20.0000 %
648 21-04-2020 00:00:00 10.33333 C 20.0000 %
649 21-04-2020 01:00:00 8.96667 C 20.0000 %
650 21-04-2020 02:00:00 9.08333 C 20.0000 %
Sensor: Nr:Datum:Temp:Feuchte:
Aussen-T/F 651 21-04-2020 03:00:00 8.93333 C 20.0000 %
652 21-04-2020 04:00:00 7.66667 C 22.6667 %
653 21-04-2020 05:00:00 7.06667 C 25.5000 %
654 21-04-2020 06:00:00 6.51667 C 27.6667 %
655 21-04-2020 07:00:00 6.55 C 29.1667 %
656 21-04-2020 08:00:00 7.61667 C 26.8333 %
657 21-04-2020 09:00:00 9.9 C 21.5000 %
658 21-04-2020 10:00:00 12.38333 C 20.0000 %
659 21-04-2020 11:00:00 14.78333 C 20.0000 %
660 21-04-2020 12:00:00 16.3 C 20.0000 %
661 21-04-2020 13:00:00 17.46667 C 20.0000 %
662 21-04-2020 14:00:00 21.25 C 20.0000 %
663 21-04-2020 15:00:00 23.5 C 20.0000 %
664 21-04-2020 16:00:00 23.2 C 20.0000 %
665 21-04-2020 17:00:00 23.05 C 20.0000 %
666 21-04-2020 18:00:00 20.46667 C 20.0000 %
667 21-04-2020 19:00:00 19 C 20.0000 %
668 21-04-2020 20:00:00 16.41667 C 20.0000 %
669 21-04-2020 21:00:00 13.8 C 20.0000 %
670 21-04-2020 22:00:00 12.66667 C 20.0000 %
671 21-04-2020 23:00:00 11.51667 C 20.0000 %
672 22-04-2020 00:00:00 11.01667 C 20.0000 %
673 22-04-2020 01:00:00 10.08333 C 22.5000 %
674 22-04-2020 02:00:00 9.58333 C 24.6667 %
675 22-04-2020 03:00:00 8.75 C 26.1667 %
Sensor: Nr:Datum:Temp:Feuchte:
Aussen-T/F 676 22-04-2020 04:00:00 7.98333 C 27.1667 %
677 22-04-2020 05:00:00 7.1 C 29.0000 %
678 22-04-2020 06:00:00 5.85 C 32.6667 %
679 22-04-2020 07:00:00 5.66667 C 35.0000 %
680 22-04-2020 08:00:00 7.41667 C 32.3333 %
681 22-04-2020 09:00:00 10.16667 C 27.0000 %
682 22-04-2020 10:00:00 13.28333 C 20.6667 %
683 22-04-2020 11:00:00 16.31667 C 20.0000 %
684 22-04-2020 12:00:00 17.76667 C 20.0000 %
685 22-04-2020 13:00:00 19.05 C 20.0000 %
686 22-04-2020 14:00:00 23.26667 C 20.0000 %
687 22-04-2020 15:00:00 26.16667 C 20.0000 %
688 22-04-2020 16:00:00 26.41667 C 20.0000 %
689 22-04-2020 17:00:00 25.2 C 20.0000 %
690 22-04-2020 18:00:00 22.1 C 20.0000 %
691 22-04-2020 19:00:00 20.63333 C 20.0000 %
692 22-04-2020 20:00:00 17.2 C 20.0000 %
693 22-04-2020 21:00:00 14.7 C 20.0000 %
694 22-04-2020 22:00:00 13.71667 C 20.0000 %
695 22-04-2020 23:00:00 13.21667 C 20.0000 %
696 23-04-2020 00:00:00 12.35 C 20.0000 %
697 23-04-2020 01:00:00 11.4 C 20.3333 %
698 23-04-2020 02:00:00 9.63333 C 25.5000 %
699 23-04-2020 03:00:00 9.26667 C 26.0000 %
700 23-04-2020 04:00:00 7.58333 C 30.5000 %
Sensor: Nr:Datum:Temp:Feuchte:
Aussen-T/F 701 23-04-2020 05:00:00 6.05 C 34.8333 %
702 23-04-2020 06:00:00 5.41667 C 36.0000 %
703 23-04-2020 07:00:00 5.25 C 38.0000 %
704 23-04-2020 08:00:00 6.06667 C 38.5000 %
705 23-04-2020 09:00:00 8.86667 C 35.0000 %
706 23-04-2020 10:00:00 12.33333 C 28.6667 %
707 23-04-2020 11:00:00 17.08333 C 20.0000 %
708 23-04-2020 12:00:00 18.38333 C 20.0000 %
709 23-04-2020 13:00:00 19.46667 C 20.0000 %
710 23-04-2020 14:00:00 24.7 C 20.0000 %
711 23-04-2020 15:00:00 29.7 C 20.0000 %
712 23-04-2020 16:00:00 28.45 C 20.0000 %
713 23-04-2020 17:00:00 29.1 C 20.0000 %
714 23-04-2020 18:00:00 24.33333 C 20.0000 %
715 23-04-2020 19:00:00 21.11667 C 20.0000 %
716 23-04-2020 20:00:00 16.66667 C 20.0000 %
717 23-04-2020 21:00:00 13.35 C 20.0000 %
718 23-04-2020 22:00:00 11.33333 C 25.1667 %
719 23-04-2020 23:00:00 9.78333 C 28.5000 %
720 24-04-2020 00:00:00 8.83333 C 30.6667 %
721 24-04-2020 01:00:00 8.1 C 32.6667 %
722 24-04-2020 02:00:00 7.1 C 34.8333 %
723 24-04-2020 03:00:00 6.48333 C 36.3333 %
724 24-04-2020 04:00:00 6.11667 C 37.5000 %
725 24-04-2020 05:00:00 6.11667 C 38.1667 %
Sensor: Nr:Datum:Temp:Feuchte:
Aussen-T/F 726 24-04-2020 06:00:00 6.03333 C 38.6667 %
727 24-04-2020 07:00:00 6.4 C 38.8333 %
728 24-04-2020 08:00:00 8.46667 C 36.1667 %
729 24-04-2020 09:00:00 11.61667 C 31.1667 %
730 24-04-2020 10:00:00 13.95 C 28.0000 %
731 24-04-2020 11:00:00 16.38333 C 24.6667 %
732 24-04-2020 12:00:00 18.46667 C 21.0000 %
733 24-04-2020 13:00:00 20.55 C 20.0000 %
734 24-04-2020 14:00:00 24.98333 C 20.0000 %
735 24-04-2020 15:00:00 28.5 C 20.0000 %
736 24-04-2020 16:00:00 27.61667 C 20.0000 %
737 24-04-2020 17:00:00 25.93333 C 20.0000 %
738 24-04-2020 18:00:00 22.08333 C 20.0000 %
739 24-04-2020 19:00:00 19.91667 C 20.0000 %
740 24-04-2020 20:00:00 17.56667 C 20.0000 %
741 24-04-2020 21:00:00 15.26667 C 20.0000 %
742 24-04-2020 22:00:00 14.05 C 20.0000 %
743 24-04-2020 23:00:00 12.83333 C 20.0000 %
Sensor: Nr:Datum:Temp:Feuchte:
G-T/H 1 25-03-2020 00:00:00 8.13333 C 64.0000 %
2 25-03-2020 01:00:00 8.1 C 64.0000 %
3 25-03-2020 02:00:00 8.01667 C 63.8333 %
4 25-03-2020 03:00:00 7.95 C 63.5000 %
5 25-03-2020 04:00:00 7.86667 C 64.0000 %
6 25-03-2020 05:00:00 7.78333 C 64.0000 %
7 25-03-2020 06:00:00 7.68333 C 63.8333 %
8 25-03-2020 07:00:00 7.6 C 63.0000 %
9 25-03-2020 08:00:00 7.53333 C 63.0000 %
10 25-03-2020 09:00:00 7.5 C 63.6667 %
11 25-03-2020 10:00:00 7.43333 C 64.0000 %
12 25-03-2020 11:00:00 7.43333 C 64.0000 %
13 25-03-2020 12:00:00 7.46667 C 64.0000 %
14 25-03-2020 13:00:00 7.5 C 64.0000 %
15 25-03-2020 14:00:00 7.6 C 63.8333 %
16 25-03-2020 15:00:00 7.66667 C 62.0000 %
17 25-03-2020 16:00:00 7.76667 C 62.0000 %
18 25-03-2020 17:00:00 7.86667 C 62.0000 %
19 25-03-2020 18:00:00 7.96667 C 62.0000 %
20 25-03-2020 19:00:00 8 C 62.8333 %
21 25-03-2020 20:00:00 8.1 C 63.8333 %
22 25-03-2020 21:00:00 8.1 C 64.0000 %
23 25-03-2020 22:00:00 8.13333 C 64.0000 %
24 25-03-2020 23:00:00 8.2 C 64.0000 %
25 26-03-2020 00:00:00 8.11667 C 64.0000 %
Sensor: Nr:Datum:Temp:Feuchte:
G-T/H 26 26-03-2020 01:00:00 8.1 C 64.0000 %
27 26-03-2020 02:00:00 8.1 C 63.8333 %
28 26-03-2020 03:00:00 8.01667 C 63.0000 %
29 26-03-2020 04:00:00 8 C 63.0000 %
30 26-03-2020 05:00:00 7.9 C 64.0000 %
31 26-03-2020 06:00:00 7.81667 C 64.0000 %
32 26-03-2020 07:00:00 7.75 C 64.0000 %
33 26-03-2020 08:00:00 7.7 C 64.0000 %
34 26-03-2020 09:00:00 7.68333 C 64.0000 %
35 26-03-2020 10:00:00 7.66667 C 64.0000 %
36 26-03-2020 11:00:00 7.61667 C 64.0000 %
37 26-03-2020 12:00:00 7.68333 C 64.0000 %
38 26-03-2020 13:00:00 7.76667 C 63.1667 %
39 26-03-2020 14:00:00 7.85 C 63.3333 %
40 26-03-2020 15:00:00 7.96667 C 63.3333 %
41 26-03-2020 16:00:00 8.08333 C 63.3333 %
42 26-03-2020 17:00:00 8.21667 C 63.5000 %
43 26-03-2020 18:00:00 8.33333 C 63.5000 %
44 26-03-2020 19:00:00 8.4 C 64.3333 %
45 26-03-2020 20:00:00 8.48333 C 65.0000 %
46 26-03-2020 21:00:00 8.51667 C 65.1667 %
47 26-03-2020 22:00:00 8.6 C 66.0000 %
48 26-03-2020 23:00:00 8.6 C 66.0000 %
49 27-03-2020 00:00:00 8.6 C 66.0000 %
50 27-03-2020 01:00:00 8.6 C 66.0000 %
Sensor: Nr:Datum:Temp:Feuchte:
G-T/H 51 27-03-2020 02:00:00 8.58333 C 66.0000 %
52 27-03-2020 03:00:00 8.55 C 66.0000 %
53 27-03-2020 04:00:00 8.5 C 66.0000 %
54 27-03-2020 05:00:00 8.48333 C 66.0000 %
55 27-03-2020 06:00:00 8.41667 C 66.0000 %
56 27-03-2020 07:00:00 8.36667 C 65.6667 %
57 27-03-2020 08:00:00 8.3 C 66.0000 %
58 27-03-2020 09:00:00 8.26667 C 66.0000 %
59 27-03-2020 10:00:00 8.26667 C 66.1667 %
60 27-03-2020 11:00:00 8.3 C 67.0000 %
61 27-03-2020 12:00:00 8.38333 C 67.0000 %
62 27-03-2020 13:00:00 8.53333 C 67.0000 %
63 27-03-2020 14:00:00 8.75 C 67.0000 %
64 27-03-2020 15:00:00 9.7 C 60.3333 %
65 27-03-2020 16:00:00 10.65 C 52.5000 %
66 27-03-2020 17:00:00 11.2 C 49.1667 %
67 27-03-2020 18:00:00 11.38333 C 49.3333 %
68 27-03-2020 19:00:00 10.9 C 52.5000 %
69 27-03-2020 20:00:00 10.46667 C 53.3333 %
70 27-03-2020 21:00:00 10.03333 C 54.0000 %
71 27-03-2020 22:00:00 9.58333 C 54.1667 %
72 27-03-2020 23:00:00 9.91667 C 55.8333 %
73 28-03-2020 00:00:00 10.03333 C 57.6667 %
74 28-03-2020 01:00:00 10.1 C 59.1667 %
75 28-03-2020 02:00:00 10.05 C 60.0000 %
Sensor: Nr:Datum:Temp:Feuchte:
G-T/H 76 28-03-2020 03:00:00 10 C 60.5000 %
77 28-03-2020 04:00:00 10 C 61.0000 %
78 28-03-2020 05:00:00 9.86667 C 62.0000 %
79 28-03-2020 06:00:00 9.8 C 62.0000 %
80 28-03-2020 07:00:00 9.73333 C 62.0000 %
81 28-03-2020 08:00:00 9.68333 C 62.8333 %
82 28-03-2020 09:00:00 9.61667 C 63.0000 %
83 28-03-2020 10:00:00 9.6 C 63.6667 %
84 28-03-2020 11:00:00 9.6 C 64.0000 %
85 28-03-2020 12:00:00 9.78333 C 64.0000 %
86 28-03-2020 13:00:00 10.65 C 60.3333 %
87 28-03-2020 14:00:00 11.88333 C 53.6667 %
88 28-03-2020 15:00:00 12.16667 C 50.0000 %
89 28-03-2020 16:00:00 11.5 C 53.3333 %
90 28-03-2020 17:00:00 11.23333 C 56.5000 %
91 28-03-2020 18:00:00 11.15 C 57.6667 %
92 28-03-2020 19:00:00 11.1 C 58.1667 %
93 28-03-2020 20:00:00 11.06667 C 59.0000 %
94 28-03-2020 21:00:00 11.01667 C 60.0000 %
95 28-03-2020 22:00:00 11 C 60.6667 %
96 28-03-2020 23:00:00 10.95 C 61.5000 %
97 29-03-2020 00:00:00 10.9 C 62.0000 %
98 29-03-2020 01:00:00 10.83333 C 62.0000 %
99 29-03-2020 02:00:00 10.76667 C 62.0000 %
100 29-03-2020 04:00:00 10.65 C 61.3333 %
Sensor: Nr:Datum:Temp:Feuchte:
G-T/H 101 29-03-2020 05:00:00 10.51667 C 60.1667 %
102 29-03-2020 06:00:00 10.45 C 60.0000 %
103 29-03-2020 07:00:00 10.38333 C 60.3333 %
104 29-03-2020 08:00:00 10.25 C 60.3333 %
105 29-03-2020 09:00:00 10.2 C 60.0000 %
106 29-03-2020 10:00:00 10.1 C 60.0000 %
107 29-03-2020 11:00:00 10.03333 C 60.0000 %
108 29-03-2020 12:00:00 10 C 59.8333 %
109 29-03-2020 13:00:00 9.91667 C 59.8333 %
110 29-03-2020 14:00:00 9.9 C 60.0000 %
111 29-03-2020 15:00:00 9.9 C 60.0000 %
112 29-03-2020 16:00:00 9.9 C 60.0000 %
113 29-03-2020 17:00:00 9.9 C 60.0000 %
114 29-03-2020 18:00:00 9.9 C 60.0000 %
115 29-03-2020 19:00:00 9.9 C 60.0000 %
116 29-03-2020 20:00:00 9.8 C 60.8333 %
117 29-03-2020 21:00:00 9.8 C 61.3333 %
118 29-03-2020 22:00:00 9.75 C 61.3333 %
119 29-03-2020 23:00:00 9.66667 C 61.0000 %
120 30-03-2020 00:00:00 9.58333 C 60.1667 %
121 30-03-2020 01:00:00 9.48333 C 60.8333 %
122 30-03-2020 02:00:00 9.36667 C 61.0000 %
123 30-03-2020 03:00:00 9.26667 C 61.0000 %
124 30-03-2020 04:00:00 9.15 C 60.3333 %
125 30-03-2020 05:00:00 9 C 60.0000 %
Sensor: Nr:Datum:Temp:Feuchte:
G-T/H 126 30-03-2020 06:00:00 8.86667 C 61.0000 %
127 30-03-2020 07:00:00 8.7 C 60.5000 %
128 30-03-2020 08:00:00 8.55 C 60.0000 %
129 30-03-2020 09:00:00 8.46667 C 60.0000 %
130 30-03-2020 10:00:00 8.33333 C 60.0000 %
131 30-03-2020 11:00:00 8.23333 C 60.0000 %
132 30-03-2020 12:00:00 8.2 C 60.0000 %
133 30-03-2020 13:00:00 8.03333 C 53.8333 %
134 30-03-2020 14:00:00 8.08333 C 53.8333 %
135 30-03-2020 15:00:00 8.16667 C 56.3333 %
136 30-03-2020 16:00:00 8.28333 C 57.5000 %
137 30-03-2020 17:00:00 8.36667 C 58.0000 %
138 30-03-2020 18:00:00 8.41667 C 59.0000 %
139 30-03-2020 19:00:00 8.48333 C 60.0000 %
140 30-03-2020 20:00:00 8.5 C 60.6667 %
141 30-03-2020 21:00:00 8.5 C 61.0000 %
142 30-03-2020 22:00:00 8.5 C 62.0000 %
143 30-03-2020 23:00:00 8.51667 C 62.0000 %
144 31-03-2020 00:00:00 8.51667 C 62.5000 %
145 31-03-2020 01:00:00 8.53333 C 63.0000 %
146 31-03-2020 02:00:00 8.5 C 63.0000 %
147 31-03-2020 03:00:00 8.5 C 64.0000 %
148 31-03-2020 04:00:00 8.5 C 64.0000 %
149 31-03-2020 05:00:00 8.5 C 64.0000 %
150 31-03-2020 06:00:00 8.46667 C 64.0000 %
Sensor: Nr:Datum:Temp:Feuchte:
G-T/H 151 31-03-2020 07:00:00 8.41667 C 64.3333 %
152 31-03-2020 08:00:00 8.4 C 65.0000 %
153 31-03-2020 09:00:00 8.4 C 65.0000 %
154 31-03-2020 10:00:00 8.4 C 64.6667 %
155 31-03-2020 11:00:00 8.4 C 64.0000 %
156 31-03-2020 12:00:00 8.43333 C 64.0000 %
157 31-03-2020 13:00:00 8.48333 C 63.3333 %
158 31-03-2020 14:00:00 8.51667 C 63.0000 %
159 31-03-2020 15:00:00 8.6 C 63.0000 %
160 31-03-2020 16:00:00 8.65 C 63.0000 %
161 31-03-2020 17:00:00 8.75 C 62.8333 %
162 31-03-2020 18:00:00 8.8 C 56.6667 %
163 31-03-2020 19:00:00 8.86667 C 58.5000 %
164 31-03-2020 20:00:00 8.9 C 60.5000 %
165 31-03-2020 21:00:00 8.88333 C 61.3333 %
166 31-03-2020 22:00:00 8.81667 C 62.0000 %
167 31-03-2020 23:00:00 8.8 C 62.0000 %
168 01-04-2020 00:00:00 8.75 C 62.0000 %
169 01-04-2020 01:00:00 8.68333 C 62.0000 %
170 01-04-2020 02:00:00 8.6 C 62.0000 %
171 01-04-2020 03:00:00 8.5 C 62.0000 %
172 01-04-2020 04:00:00 8.41667 C 62.0000 %
173 01-04-2020 05:00:00 8.28333 C 61.0000 %
174 01-04-2020 06:00:00 8.15 C 61.0000 %
175 01-04-2020 07:00:00 8.05 C 61.0000 %
Sensor: Nr:Datum:Temp:Feuchte:
G-T/H 176 01-04-2020 08:00:00 7.93333 C 61.6667 %
177 01-04-2020 09:00:00 7.85 C 62.0000 %
178 01-04-2020 10:00:00 7.8 C 62.0000 %
179 01-04-2020 11:00:00 7.75 C 62.3333 %
180 01-04-2020 12:00:00 7.75 C 63.0000 %
181 01-04-2020 13:00:00 7.78333 C 63.6667 %
182 01-04-2020 14:00:00 7.88333 C 64.0000 %
183 01-04-2020 15:00:00 7.98333 C 62.5000 %
184 01-04-2020 16:00:00 8.08333 C 63.0000 %
185 01-04-2020 17:00:00 8.18333 C 63.0000 %
186 01-04-2020 18:00:00 8.25 C 63.0000 %
187 01-04-2020 19:00:00 8.38333 C 63.6667 %
188 01-04-2020 20:00:00 8.45 C 64.0000 %
189 01-04-2020 21:00:00 8.48333 C 64.0000 %
190 01-04-2020 22:00:00 8.5 C 64.0000 %
191 01-04-2020 23:00:00 8.48333 C 64.0000 %
192 02-04-2020 00:00:00 8.43333 C 64.0000 %
193 02-04-2020 01:00:00 8.4 C 64.0000 %
194 02-04-2020 02:00:00 8.35 C 63.8333 %
195 02-04-2020 03:00:00 8.26667 C 63.0000 %
196 02-04-2020 04:00:00 8.2 C 63.0000 %
197 02-04-2020 05:00:00 8.11667 C 63.0000 %
198 02-04-2020 06:00:00 8.01667 C 62.8333 %
199 02-04-2020 07:00:00 7.93333 C 62.6667 %
200 02-04-2020 08:00:00 7.85 C 63.0000 %
Sensor: Nr:Datum:Temp:Feuchte:
G-T/H 201 02-04-2020 09:00:00 7.8 C 63.0000 %
202 02-04-2020 10:00:00 7.68333 C 63.1667 %
203 02-04-2020 11:00:00 7.66667 C 64.0000 %
204 02-04-2020 12:00:00 7.71667 C 64.8333 %
205 02-04-2020 13:00:00 7.8 C 65.0000 %
206 02-04-2020 14:00:00 7.93333 C 65.1667 %
207 02-04-2020 15:00:00 8.05 C 65.0000 %
208 02-04-2020 16:00:00 8.15 C 65.0000 %
209 02-04-2020 17:00:00 8.31667 C 65.0000 %
210 02-04-2020 18:00:00 8.43333 C 65.0000 %
211 02-04-2020 19:00:00 8.56667 C 65.5000 %
212 02-04-2020 20:00:00 8.6 C 66.0000 %
213 02-04-2020 21:00:00 8.68333 C 66.0000 %
214 02-04-2020 22:00:00 8.7 C 66.8333 %
215 02-04-2020 23:00:00 8.7 C 67.0000 %
216 03-04-2020 00:00:00 8.7 C 67.0000 %
217 03-04-2020 01:00:00 8.73333 C 66.8333 %
218 03-04-2020 02:00:00 8.7 C 66.0000 %
219 03-04-2020 03:00:00 8.7 C 66.3333 %
220 03-04-2020 04:00:00 8.7 C 67.0000 %
221 03-04-2020 05:00:00 8.7 C 67.0000 %
222 03-04-2020 06:00:00 8.66667 C 67.0000 %
223 03-04-2020 07:00:00 8.6 C 67.0000 %
224 03-04-2020 08:00:00 8.63333 C 67.0000 %
225 03-04-2020 09:00:00 8.7 C 67.0000 %
Sensor: Nr:Datum:Temp:Feuchte:
G-T/H 226 03-04-2020 10:00:00 8.7 C 68.0000 %
227 03-04-2020 11:00:00 8.73333 C 68.0000 %
228 03-04-2020 12:00:00 8.85 C 68.0000 %
229 03-04-2020 13:00:00 9.15 C 66.1667 %
230 03-04-2020 14:00:00 9.51667 C 61.6667 %
231 03-04-2020 15:00:00 9.71667 C 59.3333 %
232 03-04-2020 16:00:00 10 C 56.8333 %
233 03-04-2020 17:00:00 10.13333 C 54.3333 %
234 03-04-2020 18:00:00 10.15 C 53.1667 %
235 03-04-2020 19:00:00 10.11667 C 53.5000 %
236 03-04-2020 20:00:00 10.03333 C 51.3333 %
237 03-04-2020 21:00:00 9.86667 C 48.8333 %
238 03-04-2020 22:00:00 9.43333 C 47.1667 %
239 03-04-2020 23:00:00 9.01667 C 47.0000 %
240 04-04-2020 00:00:00 8.4 C 46.5000 %
241 04-04-2020 01:00:00 7.76667 C 47.1667 %
242 04-04-2020 02:00:00 6.76667 C 50.0000 %
243 04-04-2020 03:00:00 6 C 52.0000 %
244 04-04-2020 04:00:00 5.33333 C 53.0000 %
245 04-04-2020 05:00:00 4.76667 C 54.8333 %
246 04-04-2020 06:00:00 4.56667 C 55.0000 %
247 04-04-2020 07:00:00 4.35 C 55.0000 %
248 04-04-2020 08:00:00 4.3 C 55.6667 %
249 04-04-2020 09:00:00 4.45 C 57.3333 %
250 04-04-2020 10:00:00 5 C 58.8333 %
Sensor: Nr:Datum:Temp:Feuchte:
G-T/H 251 04-04-2020 11:00:00 6.16667 C 58.3333 %
252 04-04-2020 12:00:00 7.18333 C 56.8333 %
253 04-04-2020 13:00:00 7.85 C 54.5000 %
254 04-04-2020 14:00:00 8.08333 C 53.0000 %
255 04-04-2020 15:00:00 8.06667 C 55.0000 %
256 04-04-2020 16:00:00 8.21667 C 56.3333 %
257 04-04-2020 17:00:00 8.41667 C 57.5000 %
258 04-04-2020 18:00:00 8.7 C 57.5000 %
259 04-04-2020 19:00:00 8.83333 C 58.3333 %
260 04-04-2020 20:00:00 8.93333 C 59.0000 %
261 04-04-2020 21:00:00 9 C 59.0000 %
262 04-04-2020 22:00:00 9.06667 C 59.6667 %
263 04-04-2020 23:00:00 9.1 C 60.0000 %
264 05-04-2020 00:00:00 9.13333 C 60.0000 %
265 05-04-2020 01:00:00 9.15 C 60.0000 %
266 05-04-2020 02:00:00 9.1 C 60.0000 %
267 05-04-2020 03:00:00 9.1 C 60.3333 %
268 05-04-2020 04:00:00 9.01667 C 61.0000 %
269 05-04-2020 05:00:00 8.98333 C 60.8333 %
270 05-04-2020 06:00:00 8.9 C 61.0000 %
271 05-04-2020 07:00:00 8.83333 C 61.0000 %
272 05-04-2020 08:00:00 8.8 C 61.0000 %
273 05-04-2020 09:00:00 8.76667 C 61.0000 %
274 05-04-2020 10:00:00 8.78333 C 62.0000 %
275 05-04-2020 11:00:00 8.73333 C 62.0000 %
Sensor: Nr:Datum:Temp:Feuchte:
G-T/H 276 05-04-2020 12:00:00 8.78333 C 62.0000 %
277 05-04-2020 13:00:00 8.85 C 62.0000 %
278 05-04-2020 14:00:00 9 C 62.0000 %
279 05-04-2020 15:00:00 9.16667 C 62.0000 %
280 05-04-2020 16:00:00 9.31667 C 62.0000 %
281 05-04-2020 17:00:00 9.48333 C 62.5000 %
282 05-04-2020 18:00:00 9.63333 C 63.0000 %
283 05-04-2020 19:00:00 9.78333 C 63.0000 %
284 05-04-2020 20:00:00 9.86667 C 64.0000 %
285 05-04-2020 21:00:00 9.98333 C 63.1667 %
286 05-04-2020 22:00:00 10 C 63.5000 %
287 05-04-2020 23:00:00 10.1 C 64.0000 %
288 06-04-2020 00:00:00 10.1 C 64.0000 %
289 06-04-2020 01:00:00 10.1 C 64.0000 %
290 06-04-2020 02:00:00 10.1 C 64.0000 %
291 06-04-2020 03:00:00 10.1 C 64.0000 %
292 06-04-2020 04:00:00 10.08333 C 63.6667 %
293 06-04-2020 05:00:00 10 C 62.5000 %
294 06-04-2020 06:00:00 9.93333 C 62.6667 %
295 06-04-2020 07:00:00 9.85 C 63.0000 %
296 06-04-2020 08:00:00 9.75 C 63.0000 %
297 06-04-2020 09:00:00 9.7 C 63.5000 %
298 06-04-2020 10:00:00 9.7 C 64.0000 %
299 06-04-2020 11:00:00 9.7 C 64.0000 %
300 06-04-2020 12:00:00 9.71667 C 64.0000 %
Sensor: Nr:Datum:Temp:Feuchte:
G-T/H 301 06-04-2020 13:00:00 9.83333 C 64.0000 %
302 06-04-2020 14:00:00 10 C 63.6667 %
303 06-04-2020 15:00:00 10.15 C 64.0000 %
304 06-04-2020 16:00:00 10.31667 C 64.0000 %
305 06-04-2020 17:00:00 10.46667 C 64.0000 %
306 06-04-2020 18:00:00 10.65 C 64.0000 %
307 06-04-2020 19:00:00 10.81667 C 64.0000 %
308 06-04-2020 20:00:00 10.91667 C 64.0000 %
309 06-04-2020 21:00:00 11 C 64.0000 %
310 06-04-2020 22:00:00 11.01667 C 64.0000 %
311 06-04-2020 23:00:00 11.1 C 64.1667 %
312 07-04-2020 00:00:00 11.1 C 65.0000 %
313 07-04-2020 01:00:00 11.15 C 65.0000 %
314 07-04-2020 02:00:00 11.18333 C 65.0000 %
315 07-04-2020 03:00:00 11.15 C 65.0000 %
316 07-04-2020 04:00:00 11.11667 C 65.0000 %
317 07-04-2020 05:00:00 11.1 C 65.0000 %
318 07-04-2020 06:00:00 11.1 C 65.0000 %
319 07-04-2020 07:00:00 11.01667 C 65.0000 %
320 07-04-2020 08:00:00 11 C 65.0000 %
321 07-04-2020 09:00:00 10.98333 C 65.1667 %
322 07-04-2020 10:00:00 11.26667 C 65.6667 %
323 07-04-2020 11:00:00 12.03333 C 67.0000 %
324 07-04-2020 12:00:00 12.8 C 65.0000 %
325 07-04-2020 13:00:00 13.65 C 62.0000 %
Sensor: Nr:Datum:Temp:Feuchte:
G-T/H 326 07-04-2020 14:00:00 14.41667 C 58.6667 %
327 07-04-2020 15:00:00 15.06667 C 55.5000 %
328 07-04-2020 16:00:00 15.63333 C 52.1667 %
329 07-04-2020 17:00:00 16.3 C 47.0000 %
330 07-04-2020 18:00:00 16.71667 C 44.8333 %
331 07-04-2020 19:00:00 16.5 C 46.1667 %
332 07-04-2020 20:00:00 15.46667 C 51.0000 %
333 07-04-2020 21:00:00 14.95 C 54.1667 %
334 07-04-2020 22:00:00 14.63333 C 56.3333 %
335 07-04-2020 23:00:00 14.38333 C 57.3333 %
336 08-04-2020 00:00:00 14.2 C 58.0000 %
337 08-04-2020 01:00:00 14.01667 C 59.1667 %
338 08-04-2020 02:00:00 13.85 C 60.0000 %
339 08-04-2020 03:00:00 13.68333 C 59.8333 %
340 08-04-2020 04:00:00 13.53333 C 59.0000 %
341 08-04-2020 05:00:00 13.36667 C 59.6667 %
342 08-04-2020 06:00:00 13.18333 C 60.0000 %
343 08-04-2020 07:00:00 13.05 C 60.0000 %
344 08-04-2020 08:00:00 12.95 C 60.5000 %
345 08-04-2020 09:00:00 12.81667 C 61.6667 %
346 08-04-2020 10:00:00 12.73333 C 62.0000 %
347 08-04-2020 11:00:00 12.7 C 62.5000 %
348 08-04-2020 12:00:00 12.7 C 63.0000 %
349 08-04-2020 13:00:00 12.7 C 63.0000 %
350 08-04-2020 14:00:00 12.76667 C 63.0000 %
Sensor: Nr:Datum:Temp:Feuchte:
G-T/H 351 08-04-2020 15:00:00 12.8 C 63.0000 %
352 08-04-2020 16:00:00 12.93333 C 62.6667 %
353 08-04-2020 17:00:00 13.01667 C 62.0000 %
354 08-04-2020 18:00:00 13.11667 C 61.3333 %
355 08-04-2020 19:00:00 13.2 C 61.5000 %
356 08-04-2020 20:00:00 13.2 C 62.0000 %
357 08-04-2020 21:00:00 13.2 C 62.0000 %
358 08-04-2020 22:00:00 13.2 C 62.0000 %
359 08-04-2020 23:00:00 13.2 C 63.0000 %
360 09-04-2020 00:00:00 13.2 C 63.0000 %
361 09-04-2020 01:00:00 13.13333 C 63.0000 %
362 09-04-2020 02:00:00 13.1 C 62.5000 %
363 09-04-2020 03:00:00 13.05 C 62.0000 %
364 09-04-2020 04:00:00 13.01667 C 62.1667 %
365 09-04-2020 05:00:00 12.98333 C 62.1667 %
366 09-04-2020 06:00:00 12.9 C 63.0000 %
367 09-04-2020 07:00:00 12.8 C 63.0000 %
368 09-04-2020 08:00:00 12.76667 C 63.0000 %
369 09-04-2020 09:00:00 12.7 C 63.0000 %
370 09-04-2020 10:00:00 12.68333 C 64.0000 %
371 09-04-2020 11:00:00 12.68333 C 64.1667 %
372 09-04-2020 12:00:00 12.7 C 65.0000 %
373 09-04-2020 13:00:00 12.75 C 65.0000 %
374 09-04-2020 14:00:00 12.83333 C 65.0000 %
375 09-04-2020 15:00:00 12.96667 C 64.3333 %
Sensor: Nr:Datum:Temp:Feuchte:
G-T/H 376 09-04-2020 16:00:00 13.06667 C 64.0000 %
377 09-04-2020 17:00:00 14.25 C 58.3333 %
378 09-04-2020 18:00:00 16.05 C 48.3333 %
379 09-04-2020 19:00:00 16.53333 C 47.0000 %
380 09-04-2020 20:00:00 16.08333 C 49.1667 %
381 09-04-2020 21:00:00 15.51667 C 51.1667 %
382 09-04-2020 22:00:00 15.11667 C 52.1667 %
383 09-04-2020 23:00:00 14.85 C 55.6667 %
384 10-04-2020 00:00:00 14.65 C 57.3333 %
385 10-04-2020 01:00:00 14.48333 C 58.0000 %
386 10-04-2020 02:00:00 14.35 C 58.0000 %
387 10-04-2020 03:00:00 14.18333 C 58.0000 %
388 10-04-2020 04:00:00 14.06667 C 58.0000 %
389 10-04-2020 05:00:00 13.95 C 58.5000 %
390 10-04-2020 06:00:00 13.8 C 59.0000 %
391 10-04-2020 07:00:00 13.66667 C 59.0000 %
392 10-04-2020 08:00:00 13.55 C 59.0000 %
393 10-04-2020 09:00:00 13.41667 C 59.5000 %
394 10-04-2020 10:00:00 13.33333 C 60.3333 %
395 10-04-2020 11:00:00 13.28333 C 61.5000 %
396 10-04-2020 12:00:00 13.21667 C 62.0000 %
397 10-04-2020 13:00:00 13.3 C 62.0000 %
398 10-04-2020 14:00:00 13.36667 C 63.0000 %
399 10-04-2020 15:00:00 13.4 C 63.0000 %
400 10-04-2020 16:00:00 13.48333 C 63.0000 %
Sensor: Nr:Datum:Temp:Feuchte:
G-T/H 401 10-04-2020 17:00:00 13.53333 C 63.0000 %
402 10-04-2020 18:00:00 13.68333 C 62.6667 %
403 10-04-2020 19:00:00 13.8 C 62.0000 %
404 10-04-2020 20:00:00 13.8 C 63.0000 %
405 10-04-2020 21:00:00 13.8 C 63.0000 %
406 10-04-2020 22:00:00 13.8 C 63.0000 %
407 10-04-2020 23:00:00 13.76667 C 63.0000 %
408 11-04-2020 00:00:00 13.73333 C 63.0000 %
409 11-04-2020 01:00:00 13.7 C 63.0000 %
410 11-04-2020 02:00:00 13.66667 C 62.3333 %
411 11-04-2020 03:00:00 13.55 C 61.3333 %
412 11-04-2020 04:00:00 13.46667 C 60.0000 %
413 11-04-2020 05:00:00 13.36667 C 58.0000 %
414 11-04-2020 06:00:00 13.26667 C 58.0000 %
415 11-04-2020 07:00:00 13.16667 C 58.0000 %
416 11-04-2020 08:00:00 13.06667 C 58.0000 %
417 11-04-2020 09:00:00 13.01667 C 58.8333 %
418 11-04-2020 10:00:00 12.93333 C 59.8333 %
419 11-04-2020 11:00:00 12.9 C 61.5000 %
420 11-04-2020 12:00:00 12.96667 C 61.8333 %
421 11-04-2020 13:00:00 13 C 62.0000 %
422 11-04-2020 14:00:00 13.01667 C 61.5000 %
423 11-04-2020 15:00:00 13.1 C 62.0000 %
424 11-04-2020 16:00:00 13.2 C 62.5000 %
425 11-04-2020 17:00:00 13.25 C 63.0000 %
Sensor: Nr:Datum:Temp:Feuchte:
G-T/H 426 11-04-2020 18:00:00 13.38333 C 63.0000 %
427 11-04-2020 19:00:00 13.55 C 63.0000 %
428 11-04-2020 20:00:00 13.5 C 63.0000 %
429 11-04-2020 21:00:00 13.55 C 63.0000 %
430 11-04-2020 22:00:00 13.56667 C 63.0000 %
431 11-04-2020 23:00:00 13.58333 C 63.0000 %
432 12-04-2020 00:00:00 13.58333 C 63.0000 %
433 12-04-2020 01:00:00 13.55 C 63.5000 %
434 12-04-2020 02:00:00 13.5 C 63.0000 %
435 12-04-2020 03:00:00 13.5 C 63.0000 %
436 12-04-2020 04:00:00 13.45 C 63.0000 %
437 12-04-2020 05:00:00 13.4 C 62.0000 %
438 12-04-2020 06:00:00 13.33333 C 62.0000 %
439 12-04-2020 07:00:00 13.25 C 61.0000 %
440 12-04-2020 08:00:00 13.2 C 61.1667 %
441 12-04-2020 09:00:00 13.13333 C 62.0000 %
442 12-04-2020 10:00:00 13.1 C 62.8333 %
443 12-04-2020 11:00:00 13.1 C 63.5000 %
444 12-04-2020 12:00:00 13.13333 C 64.0000 %
445 12-04-2020 13:00:00 13.2 C 64.0000 %
446 12-04-2020 14:00:00 13.26667 C 64.0000 %
447 12-04-2020 15:00:00 13.38333 C 64.0000 %
448 12-04-2020 16:00:00 13.45 C 64.0000 %
449 12-04-2020 17:00:00 13.58333 C 64.0000 %
450 12-04-2020 18:00:00 13.68333 C 64.0000 %
Sensor: Nr:Datum:Temp:Feuchte:
G-T/H 451 12-04-2020 19:00:00 13.8 C 64.0000 %
452 12-04-2020 20:00:00 13.8 C 64.0000 %
453 12-04-2020 21:00:00 13.8 C 64.0000 %
454 12-04-2020 22:00:00 13.8 C 64.0000 %
455 12-04-2020 23:00:00 13.8 C 64.0000 %
456 13-04-2020 00:00:00 13.8 C 63.8333 %
457 13-04-2020 01:00:00 13.8 C 63.0000 %
458 13-04-2020 02:00:00 13.73333 C 62.1667 %
459 13-04-2020 03:00:00 13.68333 C 61.6667 %
460 13-04-2020 04:00:00 13.61667 C 61.0000 %
461 13-04-2020 05:00:00 13.53333 C 61.0000 %
462 13-04-2020 06:00:00 13.46667 C 61.0000 %
463 13-04-2020 07:00:00 13.4 C 61.0000 %
464 13-04-2020 08:00:00 13.3 C 61.0000 %
465 13-04-2020 09:00:00 13.28333 C 62.1667 %
466 13-04-2020 10:00:00 13.2 C 63.0000 %
467 13-04-2020 11:00:00 13.18333 C 62.5000 %
468 13-04-2020 12:00:00 13.1 C 61.1667 %
469 13-04-2020 13:00:00 13.03333 C 60.6667 %
470 13-04-2020 14:00:00 13 C 61.1667 %
471 13-04-2020 15:00:00 12.98333 C 60.8333 %
472 13-04-2020 16:00:00 12.9 C 57.5000 %
473 13-04-2020 17:00:00 12.81667 C 55.8333 %
474 13-04-2020 18:00:00 12.8 C 56.3333 %
475 13-04-2020 19:00:00 12.78333 C 56.3333 %
Sensor: Nr:Datum:Temp:Feuchte:
G-T/H 476 13-04-2020 20:00:00 12.7 C 55.0000 %
477 13-04-2020 21:00:00 12.61667 C 55.0000 %
478 13-04-2020 22:00:00 12.53333 C 55.8333 %
479 13-04-2020 23:00:00 12.46667 C 56.1667 %
480 14-04-2020 00:00:00 12.36667 C 56.8333 %
481 14-04-2020 01:00:00 12.23333 C 57.0000 %
482 14-04-2020 02:00:00 12.13333 C 57.0000 %
483 14-04-2020 03:00:00 11.95 C 57.5000 %
484 14-04-2020 04:00:00 11.83333 C 57.8333 %
485 14-04-2020 05:00:00 11.7 C 57.0000 %
486 14-04-2020 06:00:00 11.53333 C 57.1667 %
487 14-04-2020 07:00:00 11.38333 C 58.0000 %
488 14-04-2020 08:00:00 11.26667 C 58.0000 %
489 14-04-2020 09:00:00 11.18333 C 58.8333 %
490 14-04-2020 10:00:00 11.1 C 59.0000 %
491 14-04-2020 11:00:00 11.1 C 59.0000 %
492 14-04-2020 12:00:00 11 C 59.0000 %
493 14-04-2020 13:00:00 11.05 C 59.0000 %
494 14-04-2020 14:00:00 11.08333 C 59.1667 %
495 14-04-2020 15:00:00 11.13333 C 60.0000 %
496 14-04-2020 16:00:00 11.2 C 60.0000 %
497 14-04-2020 17:00:00 11.21667 C 60.0000 %
498 14-04-2020 18:00:00 11.31667 C 60.0000 %
499 14-04-2020 19:00:00 11.4 C 60.1667 %
500 14-04-2020 20:00:00 11.4 C 59.8333 %
Sensor: Nr:Datum:Temp:Feuchte:
G-T/H 501 14-04-2020 21:00:00 11.4 C 60.0000 %
502 14-04-2020 22:00:00 11.36667 C 60.5000 %
503 14-04-2020 23:00:00 11.3 C 60.0000 %
504 15-04-2020 00:00:00 11.2 C 60.0000 %
505 15-04-2020 01:00:00 11.15 C 60.0000 %
506 15-04-2020 02:00:00 11.08333 C 60.0000 %
507 15-04-2020 03:00:00 11 C 60.0000 %
508 15-04-2020 04:00:00 10.88333 C 60.5000 %
509 15-04-2020 05:00:00 10.71667 C 59.3333 %
510 15-04-2020 06:00:00 10.63333 C 59.8333 %
511 15-04-2020 07:00:00 10.51667 C 60.0000 %
512 15-04-2020 08:00:00 10.46667 C 60.0000 %
513 15-04-2020 09:00:00 10.4 C 60.0000 %
514 15-04-2020 10:00:00 10.36667 C 60.8333 %
515 15-04-2020 11:00:00 10.33333 C 61.0000 %
516 15-04-2020 12:00:00 10.4 C 62.0000 %
517 15-04-2020 13:00:00 10.43333 C 61.8333 %
518 15-04-2020 14:00:00 10.53333 C 62.0000 %
519 15-04-2020 15:00:00 10.7 C 62.5000 %
520 15-04-2020 16:00:00 10.83333 C 63.0000 %
521 15-04-2020 17:00:00 11.46667 C 58.3333 %
522 15-04-2020 18:00:00 13.26667 C 43.8333 %
523 15-04-2020 19:00:00 13.75 C 40.6667 %
524 15-04-2020 20:00:00 13.01667 C 45.1667 %
525 15-04-2020 21:00:00 12.23333 C 47.0000 %
Sensor: Nr:Datum:Temp:Feuchte:
G-T/H 526 15-04-2020 22:00:00 11.66667 C 47.8333 %
527 15-04-2020 23:00:00 11 C 48.3333 %
528 16-04-2020 00:00:00 10.3 C 49.6667 %
529 16-04-2020 01:00:00 9.73333 C 50.1667 %
530 16-04-2020 02:00:00 9.15 C 51.3333 %
531 16-04-2020 03:00:00 8.5 C 52.8333 %
532 16-04-2020 04:00:00 8.03333 C 54.0000 %
533 16-04-2020 05:00:00 7.6 C 55.3333 %
534 16-04-2020 06:00:00 7.15 C 56.1667 %
535 16-04-2020 07:00:00 6.85 C 57.8333 %
536 16-04-2020 08:00:00 6.9 C 59.3333 %
537 16-04-2020 09:00:00 7.4 C 60.5000 %
538 16-04-2020 10:00:00 8.43333 C 61.1667 %
539 16-04-2020 11:00:00 10.15 C 58.3333 %
540 16-04-2020 12:00:00 12.05 C 53.6667 %
541 16-04-2020 13:00:00 13.51667 C 50.0000 %
542 16-04-2020 14:00:00 14.61667 C 44.6667 %
543 16-04-2020 15:00:00 15.65 C 43.6667 %
544 16-04-2020 16:00:00 16.48333 C 42.6667 %
545 16-04-2020 17:00:00 16.06667 C 43.0000 %
546 16-04-2020 18:00:00 14.88333 C 47.3333 %
547 16-04-2020 19:00:00 14.51667 C 50.0000 %
548 16-04-2020 20:00:00 14.3 C 52.0000 %
549 16-04-2020 21:00:00 14.13333 C 53.1667 %
550 16-04-2020 22:00:00 14 C 54.1667 %
Sensor: Nr:Datum:Temp:Feuchte:
G-T/H 551 16-04-2020 23:00:00 13.88333 C 55.5000 %
552 17-04-2020 00:00:00 13.78333 C 56.0000 %
553 17-04-2020 01:00:00 13.66667 C 56.5000 %
554 17-04-2020 02:00:00 13.6 C 57.0000 %
555 17-04-2020 03:00:00 13.46667 C 57.0000 %
556 17-04-2020 04:00:00 13.4 C 57.0000 %
557 17-04-2020 05:00:00 13.28333 C 57.0000 %
558 17-04-2020 06:00:00 13.18333 C 57.0000 %
559 17-04-2020 07:00:00 13.08333 C 57.3333 %
560 17-04-2020 08:00:00 13.01667 C 58.0000 %
561 17-04-2020 09:00:00 12.93333 C 58.8333 %
562 17-04-2020 10:00:00 12.85 C 60.0000 %
563 17-04-2020 11:00:00 12.81667 C 60.3333 %
564 17-04-2020 12:00:00 12.88333 C 61.0000 %
565 17-04-2020 13:00:00 13.15 C 60.8333 %
566 17-04-2020 14:00:00 15.58333 C 56.0000 %
567 17-04-2020 15:00:00 16.75 C 52.3333 %
568 17-04-2020 16:00:00 17.33333 C 49.8333 %
569 17-04-2020 17:00:00 17.86667 C 47.5000 %
570 17-04-2020 18:00:00 18.56667 C 46.3333 %
571 17-04-2020 19:00:00 18.7 C 49.0000 %
572 17-04-2020 20:00:00 17.81667 C 52.5000 %
573 17-04-2020 21:00:00 17.2 C 53.0000 %
574 17-04-2020 22:00:00 16.66667 C 54.0000 %
575 17-04-2020 23:00:00 16.15 C 55.1667 %
Sensor: Nr:Datum:Temp:Feuchte:
G-T/H 576 18-04-2020 00:00:00 15.48333 C 56.0000 %
577 18-04-2020 01:00:00 14.86667 C 55.8333 %
578 18-04-2020 02:00:00 14.28333 C 56.5000 %
579 18-04-2020 03:00:00 13.65 C 58.1667 %
580 18-04-2020 04:00:00 13.1 C 59.0000 %
581 18-04-2020 05:00:00 12.7 C 60.5000 %
582 18-04-2020 06:00:00 12.38333 C 61.3333 %
583 18-04-2020 07:00:00 12.3 C 62.8333 %
584 18-04-2020 08:00:00 12.41667 C 64.6667 %
585 18-04-2020 09:00:00 12.91667 C 65.5000 %
586 18-04-2020 10:00:00 13.56667 C 65.0000 %
587 18-04-2020 11:00:00 14.16667 C 64.8333 %
588 18-04-2020 12:00:00 14.8 C 64.5000 %
589 18-04-2020 13:00:00 15.43333 C 63.0000 %
590 18-04-2020 14:00:00 16.03333 C 61.5000 %
591 18-04-2020 15:00:00 16.5 C 60.0000 %
592 18-04-2020 16:00:00 16.51667 C 61.5000 %
593 18-04-2020 17:00:00 16.4 C 65.5000 %
594 18-04-2020 18:00:00 16 C 67.1667 %
595 18-04-2020 19:00:00 15.83333 C 66.8333 %
596 18-04-2020 20:00:00 15.65 C 65.6667 %
597 18-04-2020 21:00:00 15.53333 C 65.0000 %
598 18-04-2020 22:00:00 15.38333 C 65.0000 %
599 18-04-2020 23:00:00 15.28333 C 65.0000 %
600 19-04-2020 00:00:00 15.15 C 64.6667 %
Sensor: Nr:Datum:Temp:Feuchte:
G-T/H 601 19-04-2020 01:00:00 15.01667 C 64.0000 %
602 19-04-2020 02:00:00 14.95 C 64.5000 %
603 19-04-2020 03:00:00 14.81667 C 65.0000 %
604 19-04-2020 04:00:00 14.7 C 65.0000 %
605 19-04-2020 05:00:00 14.61667 C 65.0000 %
606 19-04-2020 06:00:00 14.5 C 65.0000 %
607 19-04-2020 07:00:00 14.41667 C 65.0000 %
608 19-04-2020 08:00:00 14.35 C 65.0000 %
609 19-04-2020 09:00:00 14.3 C 65.0000 %
610 19-04-2020 10:00:00 14.3 C 65.0000 %
611 19-04-2020 11:00:00 14.21667 C 65.0000 %
612 19-04-2020 12:00:00 14.2 C 65.0000 %
613 19-04-2020 13:00:00 14.2 C 65.1667 %
614 19-04-2020 14:00:00 14.28333 C 66.0000 %
615 19-04-2020 15:00:00 14.3 C 66.0000 %
616 19-04-2020 16:00:00 14.3 C 66.0000 %
617 19-04-2020 17:00:00 14.4 C 65.0000 %
618 19-04-2020 18:00:00 14.4 C 65.0000 %
619 19-04-2020 19:00:00 14.4 C 65.0000 %
620 19-04-2020 20:00:00 14.38333 C 65.0000 %
621 19-04-2020 21:00:00 14.38333 C 64.8333 %
622 19-04-2020 22:00:00 14.23333 C 61.5000 %
623 19-04-2020 23:00:00 14.18333 C 58.3333 %
624 20-04-2020 00:00:00 14.11667 C 59.0000 %
625 20-04-2020 01:00:00 14.08333 C 59.0000 %
Sensor: Nr:Datum:Temp:Feuchte:
G-T/H 626 20-04-2020 02:00:00 14 C 58.6667 %
627 20-04-2020 03:00:00 13.9 C 59.0000 %
628 20-04-2020 04:00:00 13.8 C 58.0000 %
629 20-04-2020 05:00:00 13.71667 C 58.8333 %
630 20-04-2020 06:00:00 13.58333 C 59.0000 %
631 20-04-2020 07:00:00 13.46667 C 59.0000 %
632 20-04-2020 08:00:00 13.38333 C 59.0000 %
633 20-04-2020 09:00:00 13.28333 C 59.0000 %
634 20-04-2020 10:00:00 13.2 C 59.0000 %
635 20-04-2020 11:00:00 13.1 C 59.5000 %
636 20-04-2020 12:00:00 13.1 C 61.0000 %
637 20-04-2020 13:00:00 13.15 C 61.3333 %
638 20-04-2020 14:00:00 13.21667 C 59.6667 %
639 20-04-2020 15:00:00 13.3 C 59.5000 %
640 20-04-2020 16:00:00 13.38333 C 60.0000 %
641 20-04-2020 17:00:00 13.45 C 60.1667 %
642 20-04-2020 18:00:00 13.53333 C 61.0000 %
643 20-04-2020 19:00:00 13.65 C 61.0000 %
644 20-04-2020 20:00:00 13.66667 C 60.3333 %
645 20-04-2020 21:00:00 13.6 C 59.8333 %
646 20-04-2020 22:00:00 13.6 C 60.0000 %
647 20-04-2020 23:00:00 13.6 C 59.6667 %
648 21-04-2020 00:00:00 13.53333 C 58.8333 %
649 21-04-2020 01:00:00 13.51667 C 58.0000 %
650 21-04-2020 02:00:00 13.48333 C 58.0000 %
Sensor: Nr:Datum:Temp:Feuchte:
G-T/H 651 21-04-2020 03:00:00 13.4 C 58.0000 %
652 21-04-2020 04:00:00 13.36667 C 58.0000 %
653 21-04-2020 05:00:00 13.26667 C 58.0000 %
654 21-04-2020 06:00:00 13.2 C 58.0000 %
655 21-04-2020 07:00:00 13.1 C 58.0000 %
656 21-04-2020 08:00:00 13.03333 C 58.0000 %
657 21-04-2020 09:00:00 12.95 C 58.5000 %
658 21-04-2020 10:00:00 12.86667 C 59.0000 %
659 21-04-2020 11:00:00 12.8 C 59.0000 %
660 21-04-2020 12:00:00 12.86667 C 59.8333 %
661 21-04-2020 13:00:00 12.93333 C 60.6667 %
662 21-04-2020 14:00:00 13.05 C 59.1667 %
663 21-04-2020 15:00:00 13.15 C 59.0000 %
664 21-04-2020 16:00:00 13.26667 C 59.0000 %
665 21-04-2020 17:00:00 13.5 C 56.5000 %
666 21-04-2020 18:00:00 13.53333 C 58.3333 %
667 21-04-2020 19:00:00 13.6 C 59.3333 %
668 21-04-2020 20:00:00 13.63333 C 60.0000 %
669 21-04-2020 21:00:00 13.6 C 60.0000 %
670 21-04-2020 22:00:00 13.63333 C 60.0000 %
671 21-04-2020 23:00:00 13.63333 C 60.0000 %
672 22-04-2020 00:00:00 13.61667 C 60.0000 %
673 22-04-2020 01:00:00 13.6 C 59.6667 %
674 22-04-2020 02:00:00 13.55 C 59.0000 %
675 22-04-2020 03:00:00 13.51667 C 58.6667 %
Sensor: Nr:Datum:Temp:Feuchte:
G-T/H 676 22-04-2020 04:00:00 13.46667 C 58.0000 %
677 22-04-2020 05:00:00 13.4 C 58.0000 %
678 22-04-2020 06:00:00 13.3 C 58.0000 %
679 22-04-2020 07:00:00 13.21667 C 58.0000 %
680 22-04-2020 08:00:00 13.15 C 58.0000 %
681 22-04-2020 09:00:00 13.1 C 58.0000 %
682 22-04-2020 10:00:00 13.01667 C 58.3333 %
683 22-04-2020 11:00:00 13 C 59.3333 %
684 22-04-2020 12:00:00 13.03333 C 60.0000 %
685 22-04-2020 13:00:00 13.1 C 60.0000 %
686 22-04-2020 14:00:00 13.21667 C 60.0000 %
687 22-04-2020 15:00:00 13.31667 C 60.1667 %
688 22-04-2020 16:00:00 13.45 C 61.0000 %
689 22-04-2020 17:00:00 13.6 C 61.0000 %
690 22-04-2020 18:00:00 13.75 C 59.5000 %
691 22-04-2020 19:00:00 13.8 C 60.3333 %
692 22-04-2020 20:00:00 13.86667 C 61.0000 %
693 22-04-2020 21:00:00 13.83333 C 60.0000 %
694 22-04-2020 22:00:00 13.83333 C 60.0000 %
695 22-04-2020 23:00:00 13.81667 C 60.0000 %
696 23-04-2020 00:00:00 13.85 C 60.0000 %
697 23-04-2020 01:00:00 13.81667 C 60.0000 %
698 23-04-2020 02:00:00 13.8 C 60.0000 %
699 23-04-2020 03:00:00 13.8 C 59.1667 %
700 23-04-2020 04:00:00 13.71667 C 58.6667 %
Sensor: Nr:Datum:Temp:Feuchte:
G-T/H 701 23-04-2020 05:00:00 13.66667 C 58.0000 %
702 23-04-2020 06:00:00 13.56667 C 58.0000 %
703 23-04-2020 07:00:00 13.5 C 58.0000 %
704 23-04-2020 08:00:00 13.38333 C 58.0000 %
705 23-04-2020 09:00:00 13.31667 C 58.1667 %
706 23-04-2020 10:00:00 13.26667 C 59.0000 %
707 23-04-2020 11:00:00 13.21667 C 59.6667 %
708 23-04-2020 12:00:00 13.3 C 61.0000 %
709 23-04-2020 13:00:00 13.36667 C 61.0000 %
710 23-04-2020 14:00:00 13.45 C 60.8333 %
711 23-04-2020 15:00:00 13.53333 C 60.3333 %
712 23-04-2020 16:00:00 13.68333 C 61.0000 %
713 23-04-2020 17:00:00 13.8 C 61.0000 %
714 23-04-2020 18:00:00 13.96667 C 60.3333 %
715 23-04-2020 19:00:00 14.06667 C 60.0000 %
716 23-04-2020 20:00:00 14.08333 C 60.0000 %
717 23-04-2020 21:00:00 14.1 C 60.1667 %
718 23-04-2020 22:00:00 14.03333 C 59.5000 %
719 23-04-2020 23:00:00 14.06667 C 59.0000 %
720 24-04-2020 00:00:00 14.01667 C 59.0000 %
721 24-04-2020 01:00:00 14 C 58.8333 %
722 24-04-2020 02:00:00 13.93333 C 58.6667 %
723 24-04-2020 03:00:00 13.88333 C 59.0000 %
724 24-04-2020 04:00:00 13.8 C 58.8333 %
725 24-04-2020 05:00:00 13.73333 C 58.0000 %
Sensor: Nr:Datum:Temp:Feuchte:
G-T/H 726 24-04-2020 06:00:00 13.65 C 58.0000 %
727 24-04-2020 07:00:00 13.55 C 58.8333 %
728 24-04-2020 08:00:00 13.5 C 59.0000 %
729 24-04-2020 09:00:00 13.41667 C 59.0000 %
730 24-04-2020 10:00:00 13.4 C 60.3333 %
731 24-04-2020 11:00:00 13.46667 C 61.3333 %
732 24-04-2020 12:00:00 14.4 C 57.0000 %
733 24-04-2020 13:00:00 15.26667 C 49.0000 %
734 24-04-2020 14:00:00 16 C 45.5000 %
735 24-04-2020 15:00:00 16.51667 C 44.5000 %
736 24-04-2020 16:00:00 16.83333 C 40.0000 %
737 24-04-2020 17:00:00 17.11667 C 36.0000 %
738 24-04-2020 18:00:00 17.2 C 36.8333 %
739 24-04-2020 19:00:00 16.91667 C 40.6667 %
740 24-04-2020 20:00:00 16.41667 C 44.5000 %
741 24-04-2020 21:00:00 16.15 C 47.1667 %
742 24-04-2020 22:00:00 15.91667 C 50.1667 %
743 24-04-2020 23:00:00 15.75 C 52.3333 %

Maximal/Minimal-Werte vom 25.03.2020 - 24.04.2020

Sensor Min Max Avg
Temp
(Aussen-T/F)
-4.7 °C
01-04-2020  07:11:19
33.2 °C
12-04-2020  16:11:17
10.66 °C
Feuchte
(Aussen-T/F)
20 %
25-03-2020  09:50:17
49 %
05-04-2020  08:11:17
28.61 %
Temp
(G-T/H)
4.2 °C
04-04-2020  07:31:18
18.8 °C
17-04-2020  19:12:17
11.47 °C
Feuchte
(G-T/H)
35 %
24-04-2020  17:42:18
68 %
03-04-2020  10:01:18
60.23 %

Die Daten stammen von einer Davis Vantage Pro 2 Wetter-Station und werden unter Linux mit der Software wview2wettercgi und aufbereitet. Alle Angaben erfolgen ohne Gewähr für ihre Vollständigkeit oder Richtigkeit.
Kontakt: Rainer Krienke krienke@uni-koblenz.de . Meine Webseiten an der Uni Koblenz oder privat.
Version: $Revision: 0.78 $